<?xml version="1.0" encoding="UTF-8" standalone="no" ?>
<gpx xmlns="http://www.topografix.com/GPX/1/1" xmlns:xsi="http://www.w3.org/2001/XMLSchema-instance" xsi:schemaLocation="http://www.topografix.com/GPX/1/1 http://www.topografix.com/GPX/1/1/gpx.xsd" version="1.1" creator="VisuGPX - https://www.visugpx.com">
  <metadata>
    <name>2019-01-10-46-le montat</name>
    <desc><![CDATA[Randonnée d'environ 11km pour 290m de dénivelé positif. Un circuit classique avec un petit détour pour une descente en hors piste symphatique  ]]></desc>
  </metadata>
  <trk>
    <name><![CDATA[Tracé 10 janv. 2019 14:01:00]]></name>
    <trkseg>
      <trkpt lat="44.37925" lon="1.44641">
        <ele>178.31434666667</ele>
        <time>2019-01-10T13:01:00Z</time>
      </trkpt>
      <trkpt lat="44.37925" lon="1.44641">
        <ele>178.3143468</ele>
        <time>2019-01-10T13:01:08Z</time>
      </trkpt>
      <trkpt lat="44.37947" lon="1.44662">
        <ele>194.4135332</ele>
        <time>2019-01-10T13:01:12Z</time>
      </trkpt>
      <trkpt lat="44.37954" lon="1.44667">
        <ele>197.6133208</ele>
        <time>2019-01-10T13:01:16Z</time>
      </trkpt>
      <trkpt lat="44.37963" lon="1.44671">
        <ele>192.813146</ele>
        <time>2019-01-10T13:01:28Z</time>
      </trkpt>
      <trkpt lat="44.37971" lon="1.44671">
        <ele>193.5131508</ele>
        <time>2019-01-10T13:01:38Z</time>
      </trkpt>
      <trkpt lat="44.37979" lon="1.44675">
        <ele>192.1129992</ele>
        <time>2019-01-10T13:01:46Z</time>
      </trkpt>
      <trkpt lat="44.37986" lon="1.44681">
        <ele>192.0127516</ele>
        <time>2019-01-10T13:01:56Z</time>
      </trkpt>
      <trkpt lat="44.3799" lon="1.44692">
        <ele>190.7123236</ele>
        <time>2019-01-10T13:02:03Z</time>
      </trkpt>
      <trkpt lat="44.37993" lon="1.44703">
        <ele>190.8118952</ele>
        <time>2019-01-10T13:02:08Z</time>
      </trkpt>
      <trkpt lat="44.37995" lon="1.44712">
        <ele>190.411504</ele>
        <time>2019-01-10T13:02:13Z</time>
      </trkpt>
      <trkpt lat="44.37996" lon="1.44724">
        <ele>190.3110428</ele>
        <time>2019-01-10T13:02:20Z</time>
      </trkpt>
      <trkpt lat="44.37997" lon="1.44733">
        <ele>191.4106824</ele>
        <time>2019-01-10T13:02:24Z</time>
      </trkpt>
      <trkpt lat="44.38" lon="1.44745">
        <ele>192.1102108</ele>
        <time>2019-01-10T13:02:30Z</time>
      </trkpt>
      <trkpt lat="44.38002" lon="1.44756">
        <ele>191.2097632</ele>
        <time>2019-01-10T13:02:41Z</time>
      </trkpt>
      <trkpt lat="44.38006" lon="1.44764">
        <ele>191.209438</ele>
        <time>2019-01-10T13:02:48Z</time>
      </trkpt>
      <trkpt lat="44.3801" lon="1.44775">
        <ele>190.9089956</ele>
        <time>2019-01-10T13:02:58Z</time>
      </trkpt>
      <trkpt lat="44.38012" lon="1.44787">
        <ele>190.1085148</ele>
        <time>2019-01-10T13:03:09Z</time>
      </trkpt>
      <trkpt lat="44.38017" lon="1.44795">
        <ele>189.7081908</ele>
        <time>2019-01-10T13:03:16Z</time>
      </trkpt>
      <trkpt lat="44.38022" lon="1.44805">
        <ele>190.4078064</ele>
        <time>2019-01-10T13:03:26Z</time>
      </trkpt>
      <trkpt lat="44.38024" lon="1.44808">
        <ele>190.50768</ele>
        <time>2019-01-10T13:04:03Z</time>
      </trkpt>
      <trkpt lat="44.38027" lon="1.44821">
        <ele>191.6071496</ele>
        <time>2019-01-10T13:04:07Z</time>
      </trkpt>
      <trkpt lat="44.38026" lon="1.44834">
        <ele>191.8066552</ele>
        <time>2019-01-10T13:04:31Z</time>
      </trkpt>
      <trkpt lat="44.38034" lon="1.44826">
        <ele>193.906948</ele>
        <time>2019-01-10T13:04:59Z</time>
      </trkpt>
      <trkpt lat="44.3804" lon="1.4482">
        <ele>194.807186</ele>
        <time>2019-01-10T13:05:09Z</time>
      </trkpt>
      <trkpt lat="44.38048" lon="1.44816">
        <ele>195.1073584</ele>
        <time>2019-01-10T13:05:15Z</time>
      </trkpt>
      <trkpt lat="44.38056" lon="1.44809">
        <ele>195.7076324</ele>
        <time>2019-01-10T13:05:25Z</time>
      </trkpt>
      <trkpt lat="44.38061" lon="1.44804">
        <ele>195.9078548</ele>
        <time>2019-01-10T13:05:31Z</time>
      </trkpt>
      <trkpt lat="44.38064" lon="1.44797">
        <ele>196.2081392</ele>
        <time>2019-01-10T13:05:35Z</time>
      </trkpt>
      <trkpt lat="44.38066" lon="1.44785">
        <ele>196.7086212</ele>
        <time>2019-01-10T13:05:40Z</time>
      </trkpt>
      <trkpt lat="44.38071" lon="1.44775">
        <ele>197.3090104</ele>
        <time>2019-01-10T13:05:49Z</time>
      </trkpt>
      <trkpt lat="44.38079" lon="1.44775">
        <ele>197.7090012</ele>
        <time>2019-01-10T13:05:58Z</time>
      </trkpt>
      <trkpt lat="44.38088" lon="1.44775">
        <ele>197.9090016</ele>
        <time>2019-01-10T13:06:07Z</time>
      </trkpt>
      <trkpt lat="44.38095" lon="1.44774">
        <ele>197.9090576</ele>
        <time>2019-01-10T13:06:11Z</time>
      </trkpt>
      <trkpt lat="44.38104" lon="1.44773">
        <ele>198.0090636</ele>
        <time>2019-01-10T13:06:15Z</time>
      </trkpt>
      <trkpt lat="44.38112" lon="1.44778">
        <ele>199.208882</ele>
        <time>2019-01-10T13:06:24Z</time>
      </trkpt>
      <trkpt lat="44.38115" lon="1.44767">
        <ele>214.8093152</ele>
        <time>2019-01-10T13:06:48Z</time>
      </trkpt>
      <trkpt lat="44.38122" lon="1.44759">
        <ele>203.1096236</ele>
        <time>2019-01-10T13:07:03Z</time>
      </trkpt>
      <trkpt lat="44.38129" lon="1.44755">
        <ele>203.1097848</ele>
        <time>2019-01-10T13:07:09Z</time>
      </trkpt>
      <trkpt lat="44.38137" lon="1.44752">
        <ele>195.1099324</ele>
        <time>2019-01-10T13:07:15Z</time>
      </trkpt>
      <trkpt lat="44.38143" lon="1.44747">
        <ele>192.2101128</ele>
        <time>2019-01-10T13:07:22Z</time>
      </trkpt>
      <trkpt lat="44.38149" lon="1.44739">
        <ele>189.210448</ele>
        <time>2019-01-10T13:07:29Z</time>
      </trkpt>
      <trkpt lat="44.38155" lon="1.44729">
        <ele>189.510828</ele>
        <time>2019-01-10T13:07:36Z</time>
      </trkpt>
      <trkpt lat="44.38161" lon="1.44721">
        <ele>190.0111464</ele>
        <time>2019-01-10T13:07:41Z</time>
      </trkpt>
      <trkpt lat="44.38167" lon="1.44716">
        <ele>190.61138</ele>
        <time>2019-01-10T13:07:46Z</time>
      </trkpt>
      <trkpt lat="44.38176" lon="1.44712">
        <ele>188.0115104</ele>
        <time>2019-01-10T13:07:53Z</time>
      </trkpt>
      <trkpt lat="44.38184" lon="1.44711">
        <ele>192.0115588</ele>
        <time>2019-01-10T13:07:59Z</time>
      </trkpt>
      <trkpt lat="44.38192" lon="1.44714">
        <ele>192.4114508</ele>
        <time>2019-01-10T13:08:05Z</time>
      </trkpt>
      <trkpt lat="44.382" lon="1.44712">
        <ele>192.3115208</ele>
        <time>2019-01-10T13:08:11Z</time>
      </trkpt>
      <trkpt lat="44.38209" lon="1.44709">
        <ele>190.911636</ele>
        <time>2019-01-10T13:08:18Z</time>
      </trkpt>
      <trkpt lat="44.38216" lon="1.44706">
        <ele>191.611754</ele>
        <time>2019-01-10T13:08:24Z</time>
      </trkpt>
      <trkpt lat="44.38227" lon="1.44703">
        <ele>191.31188</ele>
        <time>2019-01-10T13:08:29Z</time>
      </trkpt>
      <trkpt lat="44.38234" lon="1.447">
        <ele>189.7119968</ele>
        <time>2019-01-10T13:08:36Z</time>
      </trkpt>
      <trkpt lat="44.38241" lon="1.44697">
        <ele>190.612116</ele>
        <time>2019-01-10T13:08:42Z</time>
      </trkpt>
      <trkpt lat="44.38249" lon="1.44695">
        <ele>191.2122028</ele>
        <time>2019-01-10T13:08:49Z</time>
      </trkpt>
      <trkpt lat="44.38257" lon="1.4469">
        <ele>183.1123852</ele>
        <time>2019-01-10T13:08:55Z</time>
      </trkpt>
      <trkpt lat="44.38264" lon="1.44687">
        <ele>183.212528</ele>
        <time>2019-01-10T13:09:00Z</time>
      </trkpt>
      <trkpt lat="44.38273" lon="1.44687">
        <ele>183.5125368</ele>
        <time>2019-01-10T13:09:06Z</time>
      </trkpt>
      <trkpt lat="44.38282" lon="1.44685">
        <ele>181.7125844</ele>
        <time>2019-01-10T13:09:14Z</time>
      </trkpt>
      <trkpt lat="44.38289" lon="1.44684">
        <ele>180.9126292</ele>
        <time>2019-01-10T13:09:21Z</time>
      </trkpt>
      <trkpt lat="44.38297" lon="1.44684">
        <ele>183.3126524</ele>
        <time>2019-01-10T13:09:26Z</time>
      </trkpt>
      <trkpt lat="44.38305" lon="1.44684">
        <ele>185.412644</ele>
        <time>2019-01-10T13:09:31Z</time>
      </trkpt>
      <trkpt lat="44.38312" lon="1.44685">
        <ele>187.6126104</ele>
        <time>2019-01-10T13:09:36Z</time>
      </trkpt>
      <trkpt lat="44.3832" lon="1.44685">
        <ele>189.5126132</ele>
        <time>2019-01-10T13:09:41Z</time>
      </trkpt>
      <trkpt lat="44.38328" lon="1.44683">
        <ele>190.512682</ele>
        <time>2019-01-10T13:09:45Z</time>
      </trkpt>
      <trkpt lat="44.38335" lon="1.44681">
        <ele>190.8127736</ele>
        <time>2019-01-10T13:09:50Z</time>
      </trkpt>
      <trkpt lat="44.38344" lon="1.44678">
        <ele>189.0128904</ele>
        <time>2019-01-10T13:09:57Z</time>
      </trkpt>
      <trkpt lat="44.38352" lon="1.44675">
        <ele>188.0130072</ele>
        <time>2019-01-10T13:10:06Z</time>
      </trkpt>
      <trkpt lat="44.3836" lon="1.44674">
        <ele>189.9130244</ele>
        <time>2019-01-10T13:10:13Z</time>
      </trkpt>
      <trkpt lat="44.38369" lon="1.44674">
        <ele>189.4130352</ele>
        <time>2019-01-10T13:10:19Z</time>
      </trkpt>
      <trkpt lat="44.38377" lon="1.44674">
        <ele>188.8130348</ele>
        <time>2019-01-10T13:10:29Z</time>
      </trkpt>
      <trkpt lat="44.38384" lon="1.44676">
        <ele>181.712952</ele>
        <time>2019-01-10T13:10:35Z</time>
      </trkpt>
      <trkpt lat="44.38392" lon="1.44676">
        <ele>176.5129436</ele>
        <time>2019-01-10T13:10:41Z</time>
      </trkpt>
      <trkpt lat="44.384" lon="1.44679">
        <ele>176.1128548</ele>
        <time>2019-01-10T13:10:45Z</time>
      </trkpt>
      <trkpt lat="44.38409" lon="1.44681">
        <ele>178.4127564</ele>
        <time>2019-01-10T13:10:49Z</time>
      </trkpt>
      <trkpt lat="44.38418" lon="1.44685">
        <ele>175.5126172</ele>
        <time>2019-01-10T13:10:57Z</time>
      </trkpt>
      <trkpt lat="44.38425" lon="1.4469">
        <ele>168.212404</ele>
        <time>2019-01-10T13:11:09Z</time>
      </trkpt>
      <trkpt lat="44.38431" lon="1.44696">
        <ele>167.4121552</ele>
        <time>2019-01-10T13:11:16Z</time>
      </trkpt>
      <trkpt lat="44.38438" lon="1.44703">
        <ele>167.7118968</ele>
        <time>2019-01-10T13:11:22Z</time>
      </trkpt>
      <trkpt lat="44.38445" lon="1.44709">
        <ele>166.2116588</ele>
        <time>2019-01-10T13:11:27Z</time>
      </trkpt>
      <trkpt lat="44.38448" lon="1.4472">
        <ele>134.61119</ele>
        <time>2019-01-10T13:11:52Z</time>
      </trkpt>
      <trkpt lat="44.38455" lon="1.44728">
        <ele>123.9108964</ele>
        <time>2019-01-10T13:12:06Z</time>
      </trkpt>
      <trkpt lat="44.38463" lon="1.44728">
        <ele>122.9108892</ele>
        <time>2019-01-10T13:12:11Z</time>
      </trkpt>
      <trkpt lat="44.38471" lon="1.44727">
        <ele>121.2109088</ele>
        <time>2019-01-10T13:12:19Z</time>
      </trkpt>
      <trkpt lat="44.38479" lon="1.4473">
        <ele>115.3107928</ele>
        <time>2019-01-10T13:12:27Z</time>
      </trkpt>
      <trkpt lat="44.3848" lon="1.44742">
        <ele>115.3103368</ele>
        <time>2019-01-10T13:12:38Z</time>
      </trkpt>
      <trkpt lat="44.38484" lon="1.44748">
        <ele>119.7100728</ele>
        <time>2019-01-10T13:12:42Z</time>
      </trkpt>
      <trkpt lat="44.38492" lon="1.44755">
        <ele>125.70982</ele>
        <time>2019-01-10T13:12:46Z</time>
      </trkpt>
      <trkpt lat="44.38502" lon="1.44762">
        <ele>131.4095368</ele>
        <time>2019-01-10T13:12:50Z</time>
      </trkpt>
      <trkpt lat="44.38513" lon="1.44767">
        <ele>137.3093408</ele>
        <time>2019-01-10T13:12:54Z</time>
      </trkpt>
      <trkpt lat="44.38531" lon="1.44773">
        <ele>146.2090644</ele>
        <time>2019-01-10T13:12:59Z</time>
      </trkpt>
      <trkpt lat="44.38547" lon="1.44779">
        <ele>154.1088608</ele>
        <time>2019-01-10T13:13:04Z</time>
      </trkpt>
      <trkpt lat="44.3856" lon="1.44781">
        <ele>158.8087584</ele>
        <time>2019-01-10T13:13:08Z</time>
      </trkpt>
      <trkpt lat="44.3857" lon="1.44782">
        <ele>163.1087116</ele>
        <time>2019-01-10T13:13:12Z</time>
      </trkpt>
      <trkpt lat="44.38582" lon="1.44784">
        <ele>168.6086364</ele>
        <time>2019-01-10T13:13:17Z</time>
      </trkpt>
      <trkpt lat="44.38592" lon="1.44787">
        <ele>172.3085268</ele>
        <time>2019-01-10T13:13:21Z</time>
      </trkpt>
      <trkpt lat="44.38597" lon="1.44789">
        <ele>173.5084528</ele>
        <time>2019-01-10T13:13:24Z</time>
      </trkpt>
      <trkpt lat="44.38607" lon="1.44792">
        <ele>177.5083272</ele>
        <time>2019-01-10T13:13:27Z</time>
      </trkpt>
      <trkpt lat="44.38616" lon="1.44795">
        <ele>180.6081972</ele>
        <time>2019-01-10T13:13:31Z</time>
      </trkpt>
      <trkpt lat="44.38624" lon="1.44797">
        <ele>182.1081416</ele>
        <time>2019-01-10T13:13:35Z</time>
      </trkpt>
      <trkpt lat="44.38632" lon="1.44798">
        <ele>183.6080628</ele>
        <time>2019-01-10T13:13:41Z</time>
      </trkpt>
      <trkpt lat="44.38641" lon="1.44802">
        <ele>185.807918</ele>
        <time>2019-01-10T13:13:50Z</time>
      </trkpt>
      <trkpt lat="44.38648" lon="1.44802">
        <ele>182.607914</ele>
        <time>2019-01-10T13:13:55Z</time>
      </trkpt>
      <trkpt lat="44.38656" lon="1.44802">
        <ele>182.3079284</ele>
        <time>2019-01-10T13:14:00Z</time>
      </trkpt>
      <trkpt lat="44.38664" lon="1.44803">
        <ele>183.7078764</ele>
        <time>2019-01-10T13:14:08Z</time>
      </trkpt>
      <trkpt lat="44.38673" lon="1.44806">
        <ele>185.4077716</ele>
        <time>2019-01-10T13:14:14Z</time>
      </trkpt>
      <trkpt lat="44.38681" lon="1.44809">
        <ele>179.8076524</ele>
        <time>2019-01-10T13:14:22Z</time>
      </trkpt>
      <trkpt lat="44.38689" lon="1.44813">
        <ele>178.1074964</ele>
        <time>2019-01-10T13:14:28Z</time>
      </trkpt>
      <trkpt lat="44.38697" lon="1.44816">
        <ele>176.4073688</ele>
        <time>2019-01-10T13:14:33Z</time>
      </trkpt>
      <trkpt lat="44.38704" lon="1.44819">
        <ele>174.7072456</ele>
        <time>2019-01-10T13:14:37Z</time>
      </trkpt>
      <trkpt lat="44.38712" lon="1.44823">
        <ele>174.2070716</ele>
        <time>2019-01-10T13:14:42Z</time>
      </trkpt>
      <trkpt lat="44.38719" lon="1.44827">
        <ele>173.9069076</ele>
        <time>2019-01-10T13:14:49Z</time>
      </trkpt>
      <trkpt lat="44.38728" lon="1.44831">
        <ele>175.2067644</ele>
        <time>2019-01-10T13:14:56Z</time>
      </trkpt>
      <trkpt lat="44.38734" lon="1.44833">
        <ele>175.9066856</ele>
        <time>2019-01-10T13:15:02Z</time>
      </trkpt>
      <trkpt lat="44.38742" lon="1.44835">
        <ele>177.4065832</ele>
        <time>2019-01-10T13:15:07Z</time>
      </trkpt>
      <trkpt lat="44.38751" lon="1.44837">
        <ele>178.106514</ele>
        <time>2019-01-10T13:15:16Z</time>
      </trkpt>
      <trkpt lat="44.38758" lon="1.44843">
        <ele>178.3062668</ele>
        <time>2019-01-10T13:15:24Z</time>
      </trkpt>
      <trkpt lat="44.38765" lon="1.44846">
        <ele>178.3061684</ele>
        <time>2019-01-10T13:15:30Z</time>
      </trkpt>
      <trkpt lat="44.38771" lon="1.44848">
        <ele>178.406086</ele>
        <time>2019-01-10T13:15:35Z</time>
      </trkpt>
      <trkpt lat="44.3878" lon="1.4485">
        <ele>180.2060148</ele>
        <time>2019-01-10T13:15:42Z</time>
      </trkpt>
      <trkpt lat="44.38788" lon="1.4485">
        <ele>182.6060116</ele>
        <time>2019-01-10T13:15:53Z</time>
      </trkpt>
      <trkpt lat="44.38797" lon="1.4485">
        <ele>181.6060216</ele>
        <time>2019-01-10T13:16:00Z</time>
      </trkpt>
      <trkpt lat="44.38805" lon="1.44851">
        <ele>178.9059732</ele>
        <time>2019-01-10T13:16:09Z</time>
      </trkpt>
      <trkpt lat="44.38814" lon="1.44851">
        <ele>179.7059644</ele>
        <time>2019-01-10T13:16:13Z</time>
      </trkpt>
      <trkpt lat="44.3882" lon="1.44853">
        <ele>169.8058748</ele>
        <time>2019-01-10T13:16:18Z</time>
      </trkpt>
      <trkpt lat="44.38828" lon="1.44857">
        <ele>166.2057308</ele>
        <time>2019-01-10T13:16:24Z</time>
      </trkpt>
      <trkpt lat="44.38836" lon="1.44861">
        <ele>170.9055452</ele>
        <time>2019-01-10T13:16:38Z</time>
      </trkpt>
      <trkpt lat="44.38843" lon="1.44867">
        <ele>170.805312</ele>
        <time>2019-01-10T13:16:48Z</time>
      </trkpt>
      <trkpt lat="44.38853" lon="1.44866">
        <ele>173.5053452</ele>
        <time>2019-01-10T13:16:53Z</time>
      </trkpt>
      <trkpt lat="44.38861" lon="1.44863">
        <ele>174.6054708</ele>
        <time>2019-01-10T13:17:00Z</time>
      </trkpt>
      <trkpt lat="44.38868" lon="1.44858">
        <ele>178.8056908</ele>
        <time>2019-01-10T13:17:05Z</time>
      </trkpt>
      <trkpt lat="44.38873" lon="1.4485">
        <ele>180.20602</ele>
        <time>2019-01-10T13:17:15Z</time>
      </trkpt>
      <trkpt lat="44.38879" lon="1.4484">
        <ele>178.3063884</ele>
        <time>2019-01-10T13:17:22Z</time>
      </trkpt>
      <trkpt lat="44.38884" lon="1.44831">
        <ele>178.1067696</ele>
        <time>2019-01-10T13:17:27Z</time>
      </trkpt>
      <trkpt lat="44.38885" lon="1.44818">
        <ele>168.1072652</ele>
        <time>2019-01-10T13:17:33Z</time>
      </trkpt>
      <trkpt lat="44.38892" lon="1.44812">
        <ele>161.5075364</ele>
        <time>2019-01-10T13:17:43Z</time>
      </trkpt>
      <trkpt lat="44.38896" lon="1.44811">
        <ele>159.8075512</ele>
        <time>2019-01-10T13:18:01Z</time>
      </trkpt>
      <trkpt lat="44.38905" lon="1.44814">
        <ele>156.9074424</ele>
        <time>2019-01-10T13:18:06Z</time>
      </trkpt>
      <trkpt lat="44.38909" lon="1.44815">
        <ele>158.1074</ele>
        <time>2019-01-10T13:18:19Z</time>
      </trkpt>
      <trkpt lat="44.38916" lon="1.44812">
        <ele>155.2075256</ele>
        <time>2019-01-10T13:18:31Z</time>
      </trkpt>
      <trkpt lat="44.38925" lon="1.4481">
        <ele>149.2076168</ele>
        <time>2019-01-10T13:18:36Z</time>
      </trkpt>
      <trkpt lat="44.38932" lon="1.44806">
        <ele>144.8077528</ele>
        <time>2019-01-10T13:18:45Z</time>
      </trkpt>
      <trkpt lat="44.3894" lon="1.44806">
        <ele>151.4077568</ele>
        <time>2019-01-10T13:18:51Z</time>
      </trkpt>
      <trkpt lat="44.38949" lon="1.44808">
        <ele>153.1076696</ele>
        <time>2019-01-10T13:18:54Z</time>
      </trkpt>
      <trkpt lat="44.38965" lon="1.44811">
        <ele>160.5075668</ele>
        <time>2019-01-10T13:18:59Z</time>
      </trkpt>
      <trkpt lat="44.38971" lon="1.4481">
        <ele>161.5076152</ele>
        <time>2019-01-10T13:19:03Z</time>
      </trkpt>
      <trkpt lat="44.38976" lon="1.44808">
        <ele>163.9076896</ele>
        <time>2019-01-10T13:19:06Z</time>
      </trkpt>
      <trkpt lat="44.38987" lon="1.44805">
        <ele>168.0078204</ele>
        <time>2019-01-10T13:19:11Z</time>
      </trkpt>
      <trkpt lat="44.38994" lon="1.44802">
        <ele>169.5079116</ele>
        <time>2019-01-10T13:19:15Z</time>
      </trkpt>
      <trkpt lat="44.39004" lon="1.44802">
        <ele>170.8079032</ele>
        <time>2019-01-10T13:19:19Z</time>
      </trkpt>
      <trkpt lat="44.39013" lon="1.44806">
        <ele>170.3077796</ele>
        <time>2019-01-10T13:19:23Z</time>
      </trkpt>
      <trkpt lat="44.39022" lon="1.44807">
        <ele>168.5077276</ele>
        <time>2019-01-10T13:19:30Z</time>
      </trkpt>
      <trkpt lat="44.3903" lon="1.44804">
        <ele>179.8078504</ele>
        <time>2019-01-10T13:19:46Z</time>
      </trkpt>
      <trkpt lat="44.39035" lon="1.44805">
        <ele>171.8078032</ele>
        <time>2019-01-10T13:19:51Z</time>
      </trkpt>
      <trkpt lat="44.39043" lon="1.44811">
        <ele>169.7075536</ele>
        <time>2019-01-10T13:19:57Z</time>
      </trkpt>
      <trkpt lat="44.3905" lon="1.44808">
        <ele>172.7076836</ele>
        <time>2019-01-10T13:20:04Z</time>
      </trkpt>
      <trkpt lat="44.39058" lon="1.44803">
        <ele>174.4078816</ele>
        <time>2019-01-10T13:20:12Z</time>
      </trkpt>
      <trkpt lat="44.39066" lon="1.44798">
        <ele>173.9080972</ele>
        <time>2019-01-10T13:20:21Z</time>
      </trkpt>
      <trkpt lat="44.39074" lon="1.44794">
        <ele>172.8082596</ele>
        <time>2019-01-10T13:20:27Z</time>
      </trkpt>
      <trkpt lat="44.3908" lon="1.44788">
        <ele>172.9084944</ele>
        <time>2019-01-10T13:20:36Z</time>
      </trkpt>
      <trkpt lat="44.39087" lon="1.44783">
        <ele>171.7086832</ele>
        <time>2019-01-10T13:20:44Z</time>
      </trkpt>
      <trkpt lat="44.39095" lon="1.44777">
        <ele>170.9089164</ele>
        <time>2019-01-10T13:20:56Z</time>
      </trkpt>
      <trkpt lat="44.39103" lon="1.44775">
        <ele>173.3090084</ele>
        <time>2019-01-10T13:21:02Z</time>
      </trkpt>
      <trkpt lat="44.39111" lon="1.44774">
        <ele>176.6090572</ele>
        <time>2019-01-10T13:21:06Z</time>
      </trkpt>
      <trkpt lat="44.39123" lon="1.44771">
        <ele>176.3091708</ele>
        <time>2019-01-10T13:21:11Z</time>
      </trkpt>
      <trkpt lat="44.3913" lon="1.44768">
        <ele>176.7092676</ele>
        <time>2019-01-10T13:21:15Z</time>
      </trkpt>
      <trkpt lat="44.39138" lon="1.44765">
        <ele>177.5093964</ele>
        <time>2019-01-10T13:21:20Z</time>
      </trkpt>
      <trkpt lat="44.39144" lon="1.44761">
        <ele>178.8095744</ele>
        <time>2019-01-10T13:21:25Z</time>
      </trkpt>
      <trkpt lat="44.39152" lon="1.44755">
        <ele>181.3097912</ele>
        <time>2019-01-10T13:21:32Z</time>
      </trkpt>
      <trkpt lat="44.39158" lon="1.44752">
        <ele>182.6099064</ele>
        <time>2019-01-10T13:21:36Z</time>
      </trkpt>
      <trkpt lat="44.39166" lon="1.44749">
        <ele>186.810022</ele>
        <time>2019-01-10T13:21:41Z</time>
      </trkpt>
      <trkpt lat="44.39175" lon="1.44746">
        <ele>186.6101636</ele>
        <time>2019-01-10T13:21:48Z</time>
      </trkpt>
      <trkpt lat="44.39182" lon="1.44741">
        <ele>182.810366</ele>
        <time>2019-01-10T13:21:58Z</time>
      </trkpt>
      <trkpt lat="44.3919" lon="1.44736">
        <ele>183.71055</ele>
        <time>2019-01-10T13:22:04Z</time>
      </trkpt>
      <trkpt lat="44.39198" lon="1.44733">
        <ele>185.4106944</ele>
        <time>2019-01-10T13:22:09Z</time>
      </trkpt>
      <trkpt lat="44.39206" lon="1.44727">
        <ele>186.5109044</ele>
        <time>2019-01-10T13:22:15Z</time>
      </trkpt>
      <trkpt lat="44.39211" lon="1.44722">
        <ele>186.2111376</ele>
        <time>2019-01-10T13:22:21Z</time>
      </trkpt>
      <trkpt lat="44.39216" lon="1.44713">
        <ele>186.3114964</ele>
        <time>2019-01-10T13:22:27Z</time>
      </trkpt>
      <trkpt lat="44.39222" lon="1.44707">
        <ele>186.5117232</ele>
        <time>2019-01-10T13:22:33Z</time>
      </trkpt>
      <trkpt lat="44.39228" lon="1.44701">
        <ele>186.511964</ele>
        <time>2019-01-10T13:22:39Z</time>
      </trkpt>
      <trkpt lat="44.39234" lon="1.44692">
        <ele>182.1123276</ele>
        <time>2019-01-10T13:22:47Z</time>
      </trkpt>
      <trkpt lat="44.39241" lon="1.44688">
        <ele>179.3124912</ele>
        <time>2019-01-10T13:22:53Z</time>
      </trkpt>
      <trkpt lat="44.39249" lon="1.44686">
        <ele>177.512566</ele>
        <time>2019-01-10T13:22:59Z</time>
      </trkpt>
      <trkpt lat="44.39258" lon="1.44684">
        <ele>180.7126292</ele>
        <time>2019-01-10T13:23:05Z</time>
      </trkpt>
      <trkpt lat="44.39266" lon="1.44679">
        <ele>183.312824</ele>
        <time>2019-01-10T13:23:11Z</time>
      </trkpt>
      <trkpt lat="44.39274" lon="1.44677">
        <ele>183.9129024</ele>
        <time>2019-01-10T13:23:17Z</time>
      </trkpt>
      <trkpt lat="44.39283" lon="1.44676">
        <ele>187.312972</ele>
        <time>2019-01-10T13:23:25Z</time>
      </trkpt>
      <trkpt lat="44.39291" lon="1.44672">
        <ele>188.6131164</ele>
        <time>2019-01-10T13:23:36Z</time>
      </trkpt>
      <trkpt lat="44.39299" lon="1.4467">
        <ele>190.4131984</ele>
        <time>2019-01-10T13:23:41Z</time>
      </trkpt>
      <trkpt lat="44.39307" lon="1.44667">
        <ele>190.9133144</ele>
        <time>2019-01-10T13:23:49Z</time>
      </trkpt>
      <trkpt lat="44.39313" lon="1.44665">
        <ele>189.7133928</ele>
        <time>2019-01-10T13:23:55Z</time>
      </trkpt>
      <trkpt lat="44.39321" lon="1.44664">
        <ele>189.9134556</ele>
        <time>2019-01-10T13:24:01Z</time>
      </trkpt>
      <trkpt lat="44.39331" lon="1.44663">
        <ele>181.213492</ele>
        <time>2019-01-10T13:24:06Z</time>
      </trkpt>
      <trkpt lat="44.39337" lon="1.44663">
        <ele>179.7134936</ele>
        <time>2019-01-10T13:24:09Z</time>
      </trkpt>
      <trkpt lat="44.39344" lon="1.4466">
        <ele>178.5136072</ele>
        <time>2019-01-10T13:24:13Z</time>
      </trkpt>
      <trkpt lat="44.39351" lon="1.44657">
        <ele>175.5137068</ele>
        <time>2019-01-10T13:24:18Z</time>
      </trkpt>
      <trkpt lat="44.39359" lon="1.44654">
        <ele>175.0138452</ele>
        <time>2019-01-10T13:24:23Z</time>
      </trkpt>
      <trkpt lat="44.39367" lon="1.4465">
        <ele>176.7139972</ele>
        <time>2019-01-10T13:24:29Z</time>
      </trkpt>
      <trkpt lat="44.39374" lon="1.44647">
        <ele>183.0141368</ele>
        <time>2019-01-10T13:24:34Z</time>
      </trkpt>
      <trkpt lat="44.39381" lon="1.44642">
        <ele>186.9143408</ele>
        <time>2019-01-10T13:24:39Z</time>
      </trkpt>
      <trkpt lat="44.39385" lon="1.44636">
        <ele>188.8145468</ele>
        <time>2019-01-10T13:24:43Z</time>
      </trkpt>
      <trkpt lat="44.39392" lon="1.4463">
        <ele>193.814812</ele>
        <time>2019-01-10T13:24:48Z</time>
      </trkpt>
      <trkpt lat="44.39396" lon="1.4462">
        <ele>199.9151928</ele>
        <time>2019-01-10T13:24:53Z</time>
      </trkpt>
      <trkpt lat="44.39401" lon="1.44611">
        <ele>203.31556</ele>
        <time>2019-01-10T13:24:59Z</time>
      </trkpt>
      <trkpt lat="44.39407" lon="1.44602">
        <ele>199.5159184</ele>
        <time>2019-01-10T13:25:06Z</time>
      </trkpt>
      <trkpt lat="44.39415" lon="1.44598">
        <ele>201.2160996</ele>
        <time>2019-01-10T13:25:24Z</time>
      </trkpt>
      <trkpt lat="44.39424" lon="1.44598">
        <ele>184.216086</ele>
        <time>2019-01-10T13:25:49Z</time>
      </trkpt>
      <trkpt lat="44.3943" lon="1.44606">
        <ele>201.4157792</ele>
        <time>2019-01-10T13:26:48Z</time>
      </trkpt>
      <trkpt lat="44.39438" lon="1.44611">
        <ele>204.21557</ele>
        <time>2019-01-10T13:26:53Z</time>
      </trkpt>
      <trkpt lat="44.39446" lon="1.44614">
        <ele>202.2154432</ele>
        <time>2019-01-10T13:27:06Z</time>
      </trkpt>
      <trkpt lat="44.39454" lon="1.44614">
        <ele>191.7154404</ele>
        <time>2019-01-10T13:27:20Z</time>
      </trkpt>
      <trkpt lat="44.39462" lon="1.44614">
        <ele>186.8154368</ele>
        <time>2019-01-10T13:27:30Z</time>
      </trkpt>
      <trkpt lat="44.39469" lon="1.44612">
        <ele>186.9155048</ele>
        <time>2019-01-10T13:27:36Z</time>
      </trkpt>
      <trkpt lat="44.39478" lon="1.44611">
        <ele>188.4155768</ele>
        <time>2019-01-10T13:27:42Z</time>
      </trkpt>
      <trkpt lat="44.39484" lon="1.44609">
        <ele>189.4156396</ele>
        <time>2019-01-10T13:27:48Z</time>
      </trkpt>
      <trkpt lat="44.39492" lon="1.44604">
        <ele>191.3158492</ele>
        <time>2019-01-10T13:27:57Z</time>
      </trkpt>
      <trkpt lat="44.395" lon="1.446">
        <ele>195.6160036</ele>
        <time>2019-01-10T13:28:04Z</time>
      </trkpt>
      <trkpt lat="44.39508" lon="1.44598">
        <ele>195.016072</ele>
        <time>2019-01-10T13:28:10Z</time>
      </trkpt>
      <trkpt lat="44.39517" lon="1.44596">
        <ele>195.9161648</ele>
        <time>2019-01-10T13:28:17Z</time>
      </trkpt>
      <trkpt lat="44.39525" lon="1.44596">
        <ele>197.3161556</ele>
        <time>2019-01-10T13:28:24Z</time>
      </trkpt>
      <trkpt lat="44.39533" lon="1.44596">
        <ele>197.2161776</ele>
        <time>2019-01-10T13:28:32Z</time>
      </trkpt>
      <trkpt lat="44.39542" lon="1.44594">
        <ele>196.5162488</ele>
        <time>2019-01-10T13:28:39Z</time>
      </trkpt>
      <trkpt lat="44.3955" lon="1.44592">
        <ele>196.2163092</ele>
        <time>2019-01-10T13:28:45Z</time>
      </trkpt>
      <trkpt lat="44.39557" lon="1.44591">
        <ele>196.3163788</ele>
        <time>2019-01-10T13:28:51Z</time>
      </trkpt>
      <trkpt lat="44.39564" lon="1.44589">
        <ele>197.0164508</ele>
        <time>2019-01-10T13:28:57Z</time>
      </trkpt>
      <trkpt lat="44.39572" lon="1.44586">
        <ele>196.316564</ele>
        <time>2019-01-10T13:29:03Z</time>
      </trkpt>
      <trkpt lat="44.3958" lon="1.44581">
        <ele>195.4167472</ele>
        <time>2019-01-10T13:29:09Z</time>
      </trkpt>
      <trkpt lat="44.39587" lon="1.44576">
        <ele>193.5169428</ele>
        <time>2019-01-10T13:29:18Z</time>
      </trkpt>
      <trkpt lat="44.39596" lon="1.44573">
        <ele>189.7170696</ele>
        <time>2019-01-10T13:29:28Z</time>
      </trkpt>
      <trkpt lat="44.39603" lon="1.4457">
        <ele>188.4172016</ele>
        <time>2019-01-10T13:29:33Z</time>
      </trkpt>
      <trkpt lat="44.3961" lon="1.44569">
        <ele>190.1172596</ele>
        <time>2019-01-10T13:29:42Z</time>
      </trkpt>
      <trkpt lat="44.39616" lon="1.44566">
        <ele>190.517358</ele>
        <time>2019-01-10T13:29:48Z</time>
      </trkpt>
      <trkpt lat="44.39622" lon="1.44561">
        <ele>187.6175564</ele>
        <time>2019-01-10T13:29:54Z</time>
      </trkpt>
      <trkpt lat="44.39628" lon="1.44553">
        <ele>179.8179012</ele>
        <time>2019-01-10T13:30:05Z</time>
      </trkpt>
      <trkpt lat="44.39635" lon="1.4455">
        <ele>180.1179896</ele>
        <time>2019-01-10T13:30:12Z</time>
      </trkpt>
      <trkpt lat="44.39643" lon="1.44546">
        <ele>182.0181636</ele>
        <time>2019-01-10T13:30:21Z</time>
      </trkpt>
      <trkpt lat="44.39651" lon="1.44544">
        <ele>187.1182548</ele>
        <time>2019-01-10T13:30:29Z</time>
      </trkpt>
      <trkpt lat="44.39658" lon="1.44541">
        <ele>185.418374</ele>
        <time>2019-01-10T13:30:33Z</time>
      </trkpt>
      <trkpt lat="44.39665" lon="1.44538">
        <ele>184.5184776</ele>
        <time>2019-01-10T13:30:37Z</time>
      </trkpt>
      <trkpt lat="44.39674" lon="1.44537">
        <ele>184.2185024</ele>
        <time>2019-01-10T13:30:42Z</time>
      </trkpt>
      <trkpt lat="44.39682" lon="1.44538">
        <ele>181.4184872</ele>
        <time>2019-01-10T13:30:55Z</time>
      </trkpt>
      <trkpt lat="44.3969" lon="1.44536">
        <ele>178.5185552</ele>
        <time>2019-01-10T13:31:03Z</time>
      </trkpt>
      <trkpt lat="44.39697" lon="1.44534">
        <ele>179.8186488</ele>
        <time>2019-01-10T13:31:09Z</time>
      </trkpt>
      <trkpt lat="44.39704" lon="1.44531">
        <ele>181.4187488</ele>
        <time>2019-01-10T13:31:14Z</time>
      </trkpt>
      <trkpt lat="44.39712" lon="1.44526">
        <ele>177.4189772</ele>
        <time>2019-01-10T13:31:23Z</time>
      </trkpt>
      <trkpt lat="44.39718" lon="1.44522">
        <ele>179.4191032</ele>
        <time>2019-01-10T13:31:28Z</time>
      </trkpt>
      <trkpt lat="44.39727" lon="1.4452">
        <ele>181.4192064</ele>
        <time>2019-01-10T13:31:34Z</time>
      </trkpt>
      <trkpt lat="44.39735" lon="1.44518">
        <ele>179.1192728</ele>
        <time>2019-01-10T13:31:39Z</time>
      </trkpt>
      <trkpt lat="44.39744" lon="1.44515">
        <ele>177.1193956</ele>
        <time>2019-01-10T13:31:45Z</time>
      </trkpt>
      <trkpt lat="44.39751" lon="1.44514">
        <ele>173.91944</ele>
        <time>2019-01-10T13:31:51Z</time>
      </trkpt>
      <trkpt lat="44.39759" lon="1.44514">
        <ele>176.7194556</ele>
        <time>2019-01-10T13:32:03Z</time>
      </trkpt>
      <trkpt lat="44.39767" lon="1.44513">
        <ele>173.8194948</ele>
        <time>2019-01-10T13:32:12Z</time>
      </trkpt>
      <trkpt lat="44.39775" lon="1.44513">
        <ele>175.8195008</ele>
        <time>2019-01-10T13:32:18Z</time>
      </trkpt>
      <trkpt lat="44.39782" lon="1.44513">
        <ele>177.319472</ele>
        <time>2019-01-10T13:32:24Z</time>
      </trkpt>
      <trkpt lat="44.39791" lon="1.44512">
        <ele>174.8195236</ele>
        <time>2019-01-10T13:32:35Z</time>
      </trkpt>
      <trkpt lat="44.39799" lon="1.44513">
        <ele>172.1194916</ele>
        <time>2019-01-10T13:32:42Z</time>
      </trkpt>
      <trkpt lat="44.39807" lon="1.44511">
        <ele>171.8195496</ele>
        <time>2019-01-10T13:32:48Z</time>
      </trkpt>
      <trkpt lat="44.39816" lon="1.44509">
        <ele>168.8196556</ele>
        <time>2019-01-10T13:32:53Z</time>
      </trkpt>
      <trkpt lat="44.39823" lon="1.4451">
        <ele>167.0196152</ele>
        <time>2019-01-10T13:33:04Z</time>
      </trkpt>
      <trkpt lat="44.3983" lon="1.44512">
        <ele>171.9195104</ele>
        <time>2019-01-10T13:33:12Z</time>
      </trkpt>
      <trkpt lat="44.39836" lon="1.44511">
        <ele>174.3195552</ele>
        <time>2019-01-10T13:33:18Z</time>
      </trkpt>
      <trkpt lat="44.39844" lon="1.4451">
        <ele>175.6195908</ele>
        <time>2019-01-10T13:33:24Z</time>
      </trkpt>
      <trkpt lat="44.39853" lon="1.44512">
        <ele>177.7195352</ele>
        <time>2019-01-10T13:33:35Z</time>
      </trkpt>
      <trkpt lat="44.39861" lon="1.44512">
        <ele>178.2195244</ele>
        <time>2019-01-10T13:33:43Z</time>
      </trkpt>
      <trkpt lat="44.3987" lon="1.44515">
        <ele>173.5194196</ele>
        <time>2019-01-10T13:33:50Z</time>
      </trkpt>
      <trkpt lat="44.39876" lon="1.44511">
        <ele>170.4195448</ele>
        <time>2019-01-10T13:34:00Z</time>
      </trkpt>
      <trkpt lat="44.39885" lon="1.44508">
        <ele>167.5196876</ele>
        <time>2019-01-10T13:34:11Z</time>
      </trkpt>
      <trkpt lat="44.39893" lon="1.44505">
        <ele>167.4198088</ele>
        <time>2019-01-10T13:34:21Z</time>
      </trkpt>
      <trkpt lat="44.399" lon="1.44501">
        <ele>168.1199656</ele>
        <time>2019-01-10T13:34:30Z</time>
      </trkpt>
      <trkpt lat="44.39907" lon="1.44495">
        <ele>167.1201892</ele>
        <time>2019-01-10T13:34:40Z</time>
      </trkpt>
      <trkpt lat="44.39916" lon="1.44491">
        <ele>167.2203636</ele>
        <time>2019-01-10T13:34:48Z</time>
      </trkpt>
      <trkpt lat="44.39924" lon="1.44486">
        <ele>164.9205528</ele>
        <time>2019-01-10T13:34:53Z</time>
      </trkpt>
      <trkpt lat="44.39931" lon="1.44483">
        <ele>165.0206624</ele>
        <time>2019-01-10T13:34:58Z</time>
      </trkpt>
      <trkpt lat="44.39939" lon="1.44479">
        <ele>163.2208272</ele>
        <time>2019-01-10T13:35:04Z</time>
      </trkpt>
      <trkpt lat="44.39948" lon="1.44477">
        <ele>160.8209056</ele>
        <time>2019-01-10T13:35:14Z</time>
      </trkpt>
      <trkpt lat="44.39956" lon="1.44476">
        <ele>161.9209696</ele>
        <time>2019-01-10T13:35:21Z</time>
      </trkpt>
      <trkpt lat="44.39963" lon="1.4447">
        <ele>149.321204</ele>
        <time>2019-01-10T13:35:40Z</time>
      </trkpt>
      <trkpt lat="44.39969" lon="1.44465">
        <ele>157.3214216</ele>
        <time>2019-01-10T13:36:02Z</time>
      </trkpt>
      <trkpt lat="44.39978" lon="1.44462">
        <ele>159.5215096</ele>
        <time>2019-01-10T13:36:06Z</time>
      </trkpt>
      <trkpt lat="44.39987" lon="1.44464">
        <ele>160.8214344</ele>
        <time>2019-01-10T13:36:11Z</time>
      </trkpt>
      <trkpt lat="44.39993" lon="1.44464">
        <ele>159.02145</ele>
        <time>2019-01-10T13:36:15Z</time>
      </trkpt>
      <trkpt lat="44.40002" lon="1.44462">
        <ele>162.1215036</ele>
        <time>2019-01-10T13:36:20Z</time>
      </trkpt>
      <trkpt lat="44.4001" lon="1.4446">
        <ele>157.6216204</ele>
        <time>2019-01-10T13:36:27Z</time>
      </trkpt>
      <trkpt lat="44.40017" lon="1.44454">
        <ele>150.4218508</ele>
        <time>2019-01-10T13:36:39Z</time>
      </trkpt>
      <trkpt lat="44.40025" lon="1.4445">
        <ele>151.3220104</ele>
        <time>2019-01-10T13:36:48Z</time>
      </trkpt>
      <trkpt lat="44.40031" lon="1.44449">
        <ele>153.2220384</ele>
        <time>2019-01-10T13:36:54Z</time>
      </trkpt>
      <trkpt lat="44.40039" lon="1.44445">
        <ele>147.1221928</ele>
        <time>2019-01-10T13:36:59Z</time>
      </trkpt>
      <trkpt lat="44.40046" lon="1.44445">
        <ele>147.2222204</ele>
        <time>2019-01-10T13:37:04Z</time>
      </trkpt>
      <trkpt lat="44.40054" lon="1.44444">
        <ele>148.3222616</ele>
        <time>2019-01-10T13:37:11Z</time>
      </trkpt>
      <trkpt lat="44.40063" lon="1.44442">
        <ele>146.1223064</ele>
        <time>2019-01-10T13:37:20Z</time>
      </trkpt>
      <trkpt lat="44.40072" lon="1.44441">
        <ele>144.1223488</ele>
        <time>2019-01-10T13:37:30Z</time>
      </trkpt>
      <trkpt lat="44.4008" lon="1.44442">
        <ele>144.422328</ele>
        <time>2019-01-10T13:37:37Z</time>
      </trkpt>
      <trkpt lat="44.40088" lon="1.44442">
        <ele>144.6223136</ele>
        <time>2019-01-10T13:37:44Z</time>
      </trkpt>
      <trkpt lat="44.40094" lon="1.44443">
        <ele>147.3222948</ele>
        <time>2019-01-10T13:37:54Z</time>
      </trkpt>
      <trkpt lat="44.40103" lon="1.44442">
        <ele>151.0223408</ele>
        <time>2019-01-10T13:38:02Z</time>
      </trkpt>
      <trkpt lat="44.4011" lon="1.44441">
        <ele>153.9223776</ele>
        <time>2019-01-10T13:38:09Z</time>
      </trkpt>
      <trkpt lat="44.40118" lon="1.44437">
        <ele>149.9225256</ele>
        <time>2019-01-10T13:38:15Z</time>
      </trkpt>
      <trkpt lat="44.40125" lon="1.44433">
        <ele>149.4226932</ele>
        <time>2019-01-10T13:38:21Z</time>
      </trkpt>
      <trkpt lat="44.40133" lon="1.44428">
        <ele>147.2228964</ele>
        <time>2019-01-10T13:38:30Z</time>
      </trkpt>
      <trkpt lat="44.4014" lon="1.44422">
        <ele>142.1231236</ele>
        <time>2019-01-10T13:38:36Z</time>
      </trkpt>
      <trkpt lat="44.40147" lon="1.44418">
        <ele>136.9232864</ele>
        <time>2019-01-10T13:38:44Z</time>
      </trkpt>
      <trkpt lat="44.40154" lon="1.44413">
        <ele>130.8234892</ele>
        <time>2019-01-10T13:38:53Z</time>
      </trkpt>
      <trkpt lat="44.40161" lon="1.44407">
        <ele>129.4237236</ele>
        <time>2019-01-10T13:39:01Z</time>
      </trkpt>
      <trkpt lat="44.40167" lon="1.44398">
        <ele>131.42409</ele>
        <time>2019-01-10T13:39:09Z</time>
      </trkpt>
      <trkpt lat="44.40173" lon="1.44391">
        <ele>133.824372</ele>
        <time>2019-01-10T13:39:14Z</time>
      </trkpt>
      <trkpt lat="44.40179" lon="1.44384">
        <ele>136.724622</ele>
        <time>2019-01-10T13:39:21Z</time>
      </trkpt>
      <trkpt lat="44.40184" lon="1.44379">
        <ele>140.6248408</ele>
        <time>2019-01-10T13:39:26Z</time>
      </trkpt>
      <trkpt lat="44.4019" lon="1.44372">
        <ele>144.1251404</ele>
        <time>2019-01-10T13:39:34Z</time>
      </trkpt>
      <trkpt lat="44.40197" lon="1.44365">
        <ele>144.7254208</ele>
        <time>2019-01-10T13:39:42Z</time>
      </trkpt>
      <trkpt lat="44.40203" lon="1.44358">
        <ele>147.2256804</ele>
        <time>2019-01-10T13:39:52Z</time>
      </trkpt>
      <trkpt lat="44.4021" lon="1.4435">
        <ele>141.7259888</ele>
        <time>2019-01-10T13:40:04Z</time>
      </trkpt>
      <trkpt lat="44.40215" lon="1.44341">
        <ele>130.4263676</ele>
        <time>2019-01-10T13:40:19Z</time>
      </trkpt>
      <trkpt lat="44.40222" lon="1.44334">
        <ele>119.92663</ele>
        <time>2019-01-10T13:40:26Z</time>
      </trkpt>
      <trkpt lat="44.40229" lon="1.44332">
        <ele>114.7267124</ele>
        <time>2019-01-10T13:40:33Z</time>
      </trkpt>
      <trkpt lat="44.40237" lon="1.44329">
        <ele>121.1268616</ele>
        <time>2019-01-10T13:40:39Z</time>
      </trkpt>
      <trkpt lat="44.40243" lon="1.44321">
        <ele>118.5271612</ele>
        <time>2019-01-10T13:40:50Z</time>
      </trkpt>
      <trkpt lat="44.40249" lon="1.44313">
        <ele>117.72749</ele>
        <time>2019-01-10T13:41:03Z</time>
      </trkpt>
      <trkpt lat="44.40257" lon="1.44311">
        <ele>115.9275528</ele>
        <time>2019-01-10T13:41:10Z</time>
      </trkpt>
      <trkpt lat="44.40264" lon="1.44303">
        <ele>116.4278692</ele>
        <time>2019-01-10T13:41:21Z</time>
      </trkpt>
      <trkpt lat="44.40271" lon="1.44299">
        <ele>118.4280456</ele>
        <time>2019-01-10T13:41:27Z</time>
      </trkpt>
      <trkpt lat="44.40278" lon="1.44291">
        <ele>115.2283488</ele>
        <time>2019-01-10T13:41:38Z</time>
      </trkpt>
      <trkpt lat="44.40286" lon="1.44288">
        <ele>113.6284712</ele>
        <time>2019-01-10T13:41:47Z</time>
      </trkpt>
      <trkpt lat="44.40292" lon="1.44284">
        <ele>114.4286424</ele>
        <time>2019-01-10T13:41:52Z</time>
      </trkpt>
      <trkpt lat="44.403" lon="1.44281">
        <ele>115.7287636</ele>
        <time>2019-01-10T13:42:00Z</time>
      </trkpt>
      <trkpt lat="44.40307" lon="1.44274">
        <ele>115.2290452</ele>
        <time>2019-01-10T13:42:18Z</time>
      </trkpt>
      <trkpt lat="44.40306" lon="1.44263">
        <ele>112.1294964</ele>
        <time>2019-01-10T13:42:30Z</time>
      </trkpt>
      <trkpt lat="44.40305" lon="1.44251">
        <ele>108.4299604</ele>
        <time>2019-01-10T13:42:38Z</time>
      </trkpt>
      <trkpt lat="44.40306" lon="1.4424">
        <ele>106.93041</ele>
        <time>2019-01-10T13:42:45Z</time>
      </trkpt>
      <trkpt lat="44.40308" lon="1.44231">
        <ele>101.5307728</ele>
        <time>2019-01-10T13:42:52Z</time>
      </trkpt>
      <trkpt lat="44.40314" lon="1.44222">
        <ele>98.23112</ele>
        <time>2019-01-10T13:42:59Z</time>
      </trkpt>
      <trkpt lat="44.40321" lon="1.44218">
        <ele>98.1312992</ele>
        <time>2019-01-10T13:43:04Z</time>
      </trkpt>
      <trkpt lat="44.40328" lon="1.44212">
        <ele>96.3315036</ele>
        <time>2019-01-10T13:43:10Z</time>
      </trkpt>
      <trkpt lat="44.40335" lon="1.44207">
        <ele>95.9317268</ele>
        <time>2019-01-10T13:43:18Z</time>
      </trkpt>
      <trkpt lat="44.40341" lon="1.44197">
        <ele>103.8321072</ele>
        <time>2019-01-10T13:44:20Z</time>
      </trkpt>
      <trkpt lat="44.40348" lon="1.44194">
        <ele>103.7322424</ele>
        <time>2019-01-10T13:44:44Z</time>
      </trkpt>
      <trkpt lat="44.40357" lon="1.44192">
        <ele>98.0323064</ele>
        <time>2019-01-10T13:44:57Z</time>
      </trkpt>
      <trkpt lat="44.40364" lon="1.44187">
        <ele>100.232504</ele>
        <time>2019-01-10T13:45:06Z</time>
      </trkpt>
      <trkpt lat="44.40371" lon="1.44186">
        <ele>98.6325748</ele>
        <time>2019-01-10T13:45:11Z</time>
      </trkpt>
      <trkpt lat="44.40379" lon="1.44183">
        <ele>98.5327</ele>
        <time>2019-01-10T13:45:17Z</time>
      </trkpt>
      <trkpt lat="44.40385" lon="1.44182">
        <ele>95.4327116</ele>
        <time>2019-01-10T13:45:24Z</time>
      </trkpt>
      <trkpt lat="44.40394" lon="1.44181">
        <ele>95.3327728</ele>
        <time>2019-01-10T13:45:30Z</time>
      </trkpt>
      <trkpt lat="44.40402" lon="1.44179">
        <ele>96.0328496</ele>
        <time>2019-01-10T13:45:38Z</time>
      </trkpt>
      <trkpt lat="44.40411" lon="1.44175">
        <ele>100.633016</ele>
        <time>2019-01-10T13:45:45Z</time>
      </trkpt>
      <trkpt lat="44.40419" lon="1.44171">
        <ele>104.2331808</ele>
        <time>2019-01-10T13:46:02Z</time>
      </trkpt>
      <trkpt lat="44.40427" lon="1.44168">
        <ele>104.0333</ele>
        <time>2019-01-10T13:46:34Z</time>
      </trkpt>
      <trkpt lat="44.4043" lon="1.44179">
        <ele>99.0328492</ele>
        <time>2019-01-10T13:46:42Z</time>
      </trkpt>
      <trkpt lat="44.40431" lon="1.4419">
        <ele>82.0323848</ele>
        <time>2019-01-10T13:47:01Z</time>
      </trkpt>
      <trkpt lat="44.40435" lon="1.44201">
        <ele>69.8319532</ele>
        <time>2019-01-10T13:47:18Z</time>
      </trkpt>
      <trkpt lat="44.40435" lon="1.44213">
        <ele>71.8314776</ele>
        <time>2019-01-10T13:47:23Z</time>
      </trkpt>
      <trkpt lat="44.40434" lon="1.44224">
        <ele>77.9310612</ele>
        <time>2019-01-10T13:47:28Z</time>
      </trkpt>
      <trkpt lat="44.40434" lon="1.44235">
        <ele>92.330608</ele>
        <time>2019-01-10T13:47:35Z</time>
      </trkpt>
      <trkpt lat="44.40431" lon="1.44246">
        <ele>100.8301588</ele>
        <time>2019-01-10T13:47:42Z</time>
      </trkpt>
      <trkpt lat="44.40429" lon="1.44256">
        <ele>110.0297588</ele>
        <time>2019-01-10T13:47:48Z</time>
      </trkpt>
      <trkpt lat="44.40429" lon="1.44267">
        <ele>117.3293412</ele>
        <time>2019-01-10T13:47:54Z</time>
      </trkpt>
      <trkpt lat="44.40429" lon="1.44279">
        <ele>119.6288612</ele>
        <time>2019-01-10T13:48:00Z</time>
      </trkpt>
      <trkpt lat="44.40429" lon="1.4429">
        <ele>122.328388</ele>
        <time>2019-01-10T13:48:09Z</time>
      </trkpt>
      <trkpt lat="44.40431" lon="1.44302">
        <ele>127.0279364</ele>
        <time>2019-01-10T13:48:18Z</time>
      </trkpt>
      <trkpt lat="44.40431" lon="1.44313">
        <ele>132.6274736</ele>
        <time>2019-01-10T13:48:24Z</time>
      </trkpt>
      <trkpt lat="44.40433" lon="1.44324">
        <ele>129.9270392</ele>
        <time>2019-01-10T13:48:32Z</time>
      </trkpt>
      <trkpt lat="44.40435" lon="1.44336">
        <ele>121.526566</ele>
        <time>2019-01-10T13:48:41Z</time>
      </trkpt>
      <trkpt lat="44.40436" lon="1.44347">
        <ele>114.0261388</ele>
        <time>2019-01-10T13:48:48Z</time>
      </trkpt>
      <trkpt lat="44.40439" lon="1.44358">
        <ele>109.9256756</ele>
        <time>2019-01-10T13:48:58Z</time>
      </trkpt>
      <trkpt lat="44.40443" lon="1.44366">
        <ele>109.5253644</ele>
        <time>2019-01-10T13:49:06Z</time>
      </trkpt>
      <trkpt lat="44.40443" lon="1.44377">
        <ele>111.0249112</ele>
        <time>2019-01-10T13:49:12Z</time>
      </trkpt>
      <trkpt lat="44.40444" lon="1.44389">
        <ele>121.824458</ele>
        <time>2019-01-10T13:49:24Z</time>
      </trkpt>
      <trkpt lat="44.40446" lon="1.44399">
        <ele>122.324042</ele>
        <time>2019-01-10T13:49:30Z</time>
      </trkpt>
      <trkpt lat="44.40446" lon="1.44411">
        <ele>119.4235632</ele>
        <time>2019-01-10T13:49:39Z</time>
      </trkpt>
      <trkpt lat="44.40443" lon="1.44422">
        <ele>126.6231184</ele>
        <time>2019-01-10T13:49:47Z</time>
      </trkpt>
      <trkpt lat="44.40442" lon="1.44432">
        <ele>127.0227168</ele>
        <time>2019-01-10T13:49:54Z</time>
      </trkpt>
      <trkpt lat="44.4044" lon="1.44444">
        <ele>127.0222588</ele>
        <time>2019-01-10T13:50:01Z</time>
      </trkpt>
      <trkpt lat="44.40441" lon="1.44456">
        <ele>125.0217584</ele>
        <time>2019-01-10T13:50:09Z</time>
      </trkpt>
      <trkpt lat="44.40441" lon="1.44467">
        <ele>118.221306</ele>
        <time>2019-01-10T13:50:16Z</time>
      </trkpt>
      <trkpt lat="44.40437" lon="1.44477">
        <ele>118.0209388</ele>
        <time>2019-01-10T13:50:21Z</time>
      </trkpt>
      <trkpt lat="44.40433" lon="1.44486">
        <ele>116.7205488</ele>
        <time>2019-01-10T13:50:28Z</time>
      </trkpt>
      <trkpt lat="44.40429" lon="1.44496">
        <ele>112.4201708</ele>
        <time>2019-01-10T13:50:35Z</time>
      </trkpt>
      <trkpt lat="44.40424" lon="1.44505">
        <ele>103.9197892</ele>
        <time>2019-01-10T13:50:42Z</time>
      </trkpt>
      <trkpt lat="44.40418" lon="1.44513">
        <ele>100.3194708</ele>
        <time>2019-01-10T13:50:51Z</time>
      </trkpt>
      <trkpt lat="44.40412" lon="1.44522">
        <ele>101.719114</ele>
        <time>2019-01-10T13:51:01Z</time>
      </trkpt>
      <trkpt lat="44.40408" lon="1.44532">
        <ele>99.41872</ele>
        <time>2019-01-10T13:51:14Z</time>
      </trkpt>
      <trkpt lat="44.40404" lon="1.44542">
        <ele>103.5183192</ele>
        <time>2019-01-10T13:51:23Z</time>
      </trkpt>
      <trkpt lat="44.40399" lon="1.4455">
        <ele>114.9180216</ele>
        <time>2019-01-10T13:51:30Z</time>
      </trkpt>
      <trkpt lat="44.40394" lon="1.44559">
        <ele>116.7176344</ele>
        <time>2019-01-10T13:51:36Z</time>
      </trkpt>
      <trkpt lat="44.40389" lon="1.44568">
        <ele>121.41728</ele>
        <time>2019-01-10T13:51:42Z</time>
      </trkpt>
      <trkpt lat="44.40383" lon="1.44577">
        <ele>123.8169268</ele>
        <time>2019-01-10T13:51:49Z</time>
      </trkpt>
      <trkpt lat="44.40378" lon="1.44585">
        <ele>125.2165972</ele>
        <time>2019-01-10T13:51:55Z</time>
      </trkpt>
      <trkpt lat="44.40374" lon="1.44594">
        <ele>121.6162416</ele>
        <time>2019-01-10T13:52:01Z</time>
      </trkpt>
      <trkpt lat="44.40372" lon="1.44603">
        <ele>109.9158736</ele>
        <time>2019-01-10T13:52:09Z</time>
      </trkpt>
      <trkpt lat="44.40367" lon="1.44614">
        <ele>106.7154264</ele>
        <time>2019-01-10T13:52:14Z</time>
      </trkpt>
      <trkpt lat="44.40364" lon="1.44623">
        <ele>104.7150656</ele>
        <time>2019-01-10T13:52:18Z</time>
      </trkpt>
      <trkpt lat="44.40359" lon="1.44631">
        <ele>102.2147432</ele>
        <time>2019-01-10T13:52:23Z</time>
      </trkpt>
      <trkpt lat="44.40355" lon="1.44641">
        <ele>100.7143748</ele>
        <time>2019-01-10T13:52:29Z</time>
      </trkpt>
      <trkpt lat="44.40352" lon="1.44651">
        <ele>99.1139776</ele>
        <time>2019-01-10T13:52:36Z</time>
      </trkpt>
      <trkpt lat="44.40349" lon="1.4466">
        <ele>96.5135892</ele>
        <time>2019-01-10T13:52:44Z</time>
      </trkpt>
      <trkpt lat="44.40344" lon="1.4467">
        <ele>96.7131872</ele>
        <time>2019-01-10T13:52:51Z</time>
      </trkpt>
      <trkpt lat="44.4034" lon="1.4468">
        <ele>97.4128016</ele>
        <time>2019-01-10T13:52:59Z</time>
      </trkpt>
      <trkpt lat="44.40335" lon="1.4469">
        <ele>103.31239</ele>
        <time>2019-01-10T13:53:08Z</time>
      </trkpt>
      <trkpt lat="44.40331" lon="1.44697">
        <ele>107.0121112</ele>
        <time>2019-01-10T13:53:15Z</time>
      </trkpt>
      <trkpt lat="44.40325" lon="1.44706">
        <ele>112.3117748</ele>
        <time>2019-01-10T13:53:22Z</time>
      </trkpt>
      <trkpt lat="44.4032" lon="1.44712">
        <ele>115.7115204</ele>
        <time>2019-01-10T13:53:27Z</time>
      </trkpt>
      <trkpt lat="44.40315" lon="1.44721">
        <ele>117.7111544</ele>
        <time>2019-01-10T13:53:33Z</time>
      </trkpt>
      <trkpt lat="44.40312" lon="1.44728">
        <ele>119.610888</ele>
        <time>2019-01-10T13:53:36Z</time>
      </trkpt>
      <trkpt lat="44.40308" lon="1.44738">
        <ele>119.0104924</ele>
        <time>2019-01-10T13:53:40Z</time>
      </trkpt>
      <trkpt lat="44.40304" lon="1.44747">
        <ele>118.9101248</ele>
        <time>2019-01-10T13:53:44Z</time>
      </trkpt>
      <trkpt lat="44.40299" lon="1.44756">
        <ele>118.7097756</ele>
        <time>2019-01-10T13:53:49Z</time>
      </trkpt>
      <trkpt lat="44.40294" lon="1.44763">
        <ele>120.1094688</ele>
        <time>2019-01-10T13:53:54Z</time>
      </trkpt>
      <trkpt lat="44.40291" lon="1.44774">
        <ele>124.8090472</ele>
        <time>2019-01-10T13:54:00Z</time>
      </trkpt>
      <trkpt lat="44.40286" lon="1.44784">
        <ele>126.0086344</ele>
        <time>2019-01-10T13:54:08Z</time>
      </trkpt>
      <trkpt lat="44.40281" lon="1.44793">
        <ele>125.90828</ele>
        <time>2019-01-10T13:54:14Z</time>
      </trkpt>
      <trkpt lat="44.40277" lon="1.44802">
        <ele>122.6079048</ele>
        <time>2019-01-10T13:54:21Z</time>
      </trkpt>
      <trkpt lat="44.40274" lon="1.44813">
        <ele>114.9074948</ele>
        <time>2019-01-10T13:54:30Z</time>
      </trkpt>
      <trkpt lat="44.4027" lon="1.44823">
        <ele>105.707062</ele>
        <time>2019-01-10T13:54:41Z</time>
      </trkpt>
      <trkpt lat="44.40269" lon="1.44832">
        <ele>102.0067212</ele>
        <time>2019-01-10T13:54:55Z</time>
      </trkpt>
      <trkpt lat="44.40262" lon="1.44844">
        <ele>101.506236</ele>
        <time>2019-01-10T13:55:00Z</time>
      </trkpt>
      <trkpt lat="44.40259" lon="1.44855">
        <ele>108.7058016</ele>
        <time>2019-01-10T13:55:08Z</time>
      </trkpt>
      <trkpt lat="44.40253" lon="1.44863">
        <ele>117.9054804</ele>
        <time>2019-01-10T13:55:18Z</time>
      </trkpt>
      <trkpt lat="44.40248" lon="1.44873">
        <ele>119.3050968</ele>
        <time>2019-01-10T13:55:25Z</time>
      </trkpt>
      <trkpt lat="44.40244" lon="1.44881">
        <ele>118.7047448</ele>
        <time>2019-01-10T13:55:30Z</time>
      </trkpt>
      <trkpt lat="44.40239" lon="1.44891">
        <ele>117.704358</ele>
        <time>2019-01-10T13:55:36Z</time>
      </trkpt>
      <trkpt lat="44.40234" lon="1.449">
        <ele>116.4040004</ele>
        <time>2019-01-10T13:55:42Z</time>
      </trkpt>
      <trkpt lat="44.40229" lon="1.44908">
        <ele>115.3036836</ele>
        <time>2019-01-10T13:55:48Z</time>
      </trkpt>
      <trkpt lat="44.40224" lon="1.44917">
        <ele>109.5033268</ele>
        <time>2019-01-10T13:55:56Z</time>
      </trkpt>
      <trkpt lat="44.40221" lon="1.44925">
        <ele>110.9029944</ele>
        <time>2019-01-10T13:56:00Z</time>
      </trkpt>
      <trkpt lat="44.40218" lon="1.44935">
        <ele>110.1025888</ele>
        <time>2019-01-10T13:56:06Z</time>
      </trkpt>
      <trkpt lat="44.40215" lon="1.44945">
        <ele>109.3022076</ele>
        <time>2019-01-10T13:56:13Z</time>
      </trkpt>
      <trkpt lat="44.40211" lon="1.44955">
        <ele>113.0018104</ele>
        <time>2019-01-10T13:56:21Z</time>
      </trkpt>
      <trkpt lat="44.40204" lon="1.44962">
        <ele>118.0015164</ele>
        <time>2019-01-10T13:56:29Z</time>
      </trkpt>
      <trkpt lat="44.40198" lon="1.44971">
        <ele>118.3011584</ele>
        <time>2019-01-10T13:56:37Z</time>
      </trkpt>
      <trkpt lat="44.40192" lon="1.44979">
        <ele>117.100826</ele>
        <time>2019-01-10T13:56:45Z</time>
      </trkpt>
      <trkpt lat="44.40186" lon="1.44987">
        <ele>119.60054</ele>
        <time>2019-01-10T13:56:52Z</time>
      </trkpt>
      <trkpt lat="44.40181" lon="1.44996">
        <ele>103.2001652</ele>
        <time>2019-01-10T13:57:09Z</time>
      </trkpt>
      <trkpt lat="44.40177" lon="1.45006">
        <ele>98.9997768</ele>
        <time>2019-01-10T13:57:15Z</time>
      </trkpt>
      <trkpt lat="44.40174" lon="1.45016">
        <ele>96.5993424</ele>
        <time>2019-01-10T13:57:23Z</time>
      </trkpt>
      <trkpt lat="44.4017" lon="1.45027">
        <ele>93.9989216</ele>
        <time>2019-01-10T13:57:30Z</time>
      </trkpt>
      <trkpt lat="44.40166" lon="1.45037">
        <ele>90.8985044</ele>
        <time>2019-01-10T13:57:36Z</time>
      </trkpt>
      <trkpt lat="44.40161" lon="1.45048">
        <ele>92.9980908</ele>
        <time>2019-01-10T13:57:44Z</time>
      </trkpt>
      <trkpt lat="44.40154" lon="1.45056">
        <ele>95.3977684</ele>
        <time>2019-01-10T13:57:51Z</time>
      </trkpt>
      <trkpt lat="44.40147" lon="1.45063">
        <ele>100.4975004</ele>
        <time>2019-01-10T13:58:03Z</time>
      </trkpt>
      <trkpt lat="44.4014" lon="1.45068">
        <ele>102.7972852</ele>
        <time>2019-01-10T13:58:13Z</time>
      </trkpt>
      <trkpt lat="44.40134" lon="1.45076">
        <ele>100.9969432</ele>
        <time>2019-01-10T13:58:21Z</time>
      </trkpt>
      <trkpt lat="44.40128" lon="1.45084">
        <ele>102.5966252</ele>
        <time>2019-01-10T13:58:29Z</time>
      </trkpt>
      <trkpt lat="44.4012" lon="1.4509">
        <ele>101.79639</ele>
        <time>2019-01-10T13:58:39Z</time>
      </trkpt>
      <trkpt lat="44.40114" lon="1.45096">
        <ele>100.5961676</ele>
        <time>2019-01-10T13:58:45Z</time>
      </trkpt>
      <trkpt lat="44.40107" lon="1.45103">
        <ele>101.8958736</ele>
        <time>2019-01-10T13:58:51Z</time>
      </trkpt>
      <trkpt lat="44.40099" lon="1.45107">
        <ele>105.8957088</ele>
        <time>2019-01-10T13:59:00Z</time>
      </trkpt>
      <trkpt lat="44.4009" lon="1.45111">
        <ele>106.39555</ele>
        <time>2019-01-10T13:59:08Z</time>
      </trkpt>
      <trkpt lat="44.40083" lon="1.45118">
        <ele>109.9952936</ele>
        <time>2019-01-10T13:59:15Z</time>
      </trkpt>
      <trkpt lat="44.40077" lon="1.45122">
        <ele>110.9951052</ele>
        <time>2019-01-10T13:59:21Z</time>
      </trkpt>
      <trkpt lat="44.4007" lon="1.45128">
        <ele>111.7948824</ele>
        <time>2019-01-10T13:59:29Z</time>
      </trkpt>
      <trkpt lat="44.40063" lon="1.45135">
        <ele>117.294606</ele>
        <time>2019-01-10T13:59:35Z</time>
      </trkpt>
      <trkpt lat="44.40057" lon="1.45144">
        <ele>119.1942548</ele>
        <time>2019-01-10T13:59:41Z</time>
      </trkpt>
      <trkpt lat="44.40051" lon="1.45151">
        <ele>119.393942</ele>
        <time>2019-01-10T13:59:47Z</time>
      </trkpt>
      <trkpt lat="44.40045" lon="1.45158">
        <ele>120.8936636</ele>
        <time>2019-01-10T13:59:57Z</time>
      </trkpt>
      <trkpt lat="44.40039" lon="1.45159">
        <ele>116.6936328</ele>
        <time>2019-01-10T14:00:00Z</time>
      </trkpt>
      <trkpt lat="44.40031" lon="1.45164">
        <ele>113.8934484</ele>
        <time>2019-01-10T14:00:05Z</time>
      </trkpt>
      <trkpt lat="44.40025" lon="1.45169">
        <ele>115.1932432</ele>
        <time>2019-01-10T14:00:09Z</time>
      </trkpt>
      <trkpt lat="44.40019" lon="1.45175">
        <ele>113.7930016</ele>
        <time>2019-01-10T14:00:14Z</time>
      </trkpt>
      <trkpt lat="44.40013" lon="1.45183">
        <ele>114.492686</ele>
        <time>2019-01-10T14:00:21Z</time>
      </trkpt>
      <trkpt lat="44.40005" lon="1.45187">
        <ele>114.4925152</ele>
        <time>2019-01-10T14:00:28Z</time>
      </trkpt>
      <trkpt lat="44.39998" lon="1.45192">
        <ele>114.5923316</ele>
        <time>2019-01-10T14:00:36Z</time>
      </trkpt>
      <trkpt lat="44.39992" lon="1.45197">
        <ele>113.592136</ele>
        <time>2019-01-10T14:00:42Z</time>
      </trkpt>
      <trkpt lat="44.39984" lon="1.45203">
        <ele>112.0918728</ele>
        <time>2019-01-10T14:00:51Z</time>
      </trkpt>
      <trkpt lat="44.3998" lon="1.4521">
        <ele>105.6916016</ele>
        <time>2019-01-10T14:00:57Z</time>
      </trkpt>
      <trkpt lat="44.39976" lon="1.45218">
        <ele>109.391266</ele>
        <time>2019-01-10T14:01:03Z</time>
      </trkpt>
      <trkpt lat="44.39967" lon="1.45218">
        <ele>90.8912684</ele>
        <time>2019-01-10T14:01:15Z</time>
      </trkpt>
      <trkpt lat="44.39962" lon="1.4522">
        <ele>85.9911944</ele>
        <time>2019-01-10T14:01:35Z</time>
      </trkpt>
      <trkpt lat="44.39954" lon="1.45226">
        <ele>93.1909644</ele>
        <time>2019-01-10T14:01:47Z</time>
      </trkpt>
      <trkpt lat="44.39945" lon="1.45231">
        <ele>118.2907684</ele>
        <time>2019-01-10T14:01:51Z</time>
      </trkpt>
      <trkpt lat="44.39937" lon="1.45227">
        <ele>124.9909068</ele>
        <time>2019-01-10T14:03:42Z</time>
      </trkpt>
      <trkpt lat="44.39937" lon="1.45239">
        <ele>130.5904388</ele>
        <time>2019-01-10T14:04:21Z</time>
      </trkpt>
      <trkpt lat="44.39939" lon="1.4525">
        <ele>132.9899896</ele>
        <time>2019-01-10T14:04:56Z</time>
      </trkpt>
      <trkpt lat="44.39944" lon="1.4526">
        <ele>137.3896092</ele>
        <time>2019-01-10T14:05:06Z</time>
      </trkpt>
      <trkpt lat="44.39969" lon="1.45299">
        <ele>134.18804</ele>
        <time>2019-01-10T14:05:30Z</time>
      </trkpt>
      <trkpt lat="44.39944" lon="1.45303">
        <ele>119.5878648</ele>
        <time>2019-01-10T14:05:34Z</time>
      </trkpt>
      <trkpt lat="44.39949" lon="1.45311">
        <ele>130.0875608</ele>
        <time>2019-01-10T14:05:43Z</time>
      </trkpt>
      <trkpt lat="44.39946" lon="1.45323">
        <ele>131.1870872</ele>
        <time>2019-01-10T14:05:58Z</time>
      </trkpt>
      <trkpt lat="44.3994" lon="1.45331">
        <ele>135.1867452</ele>
        <time>2019-01-10T14:06:12Z</time>
      </trkpt>
      <trkpt lat="44.39937" lon="1.45341">
        <ele>136.1863776</ele>
        <time>2019-01-10T14:06:19Z</time>
      </trkpt>
      <trkpt lat="44.39936" lon="1.45353">
        <ele>143.4858872</ele>
        <time>2019-01-10T14:06:27Z</time>
      </trkpt>
      <trkpt lat="44.39932" lon="1.45363">
        <ele>140.0854804</ele>
        <time>2019-01-10T14:06:37Z</time>
      </trkpt>
      <trkpt lat="44.39924" lon="1.45359">
        <ele>130.3856584</ele>
        <time>2019-01-10T14:07:42Z</time>
      </trkpt>
      <trkpt lat="44.39916" lon="1.45355">
        <ele>112.7857924</ele>
        <time>2019-01-10T14:08:01Z</time>
      </trkpt>
      <trkpt lat="44.39908" lon="1.4536">
        <ele>121.8856216</ele>
        <time>2019-01-10T14:08:13Z</time>
      </trkpt>
      <trkpt lat="44.39902" lon="1.45352">
        <ele>135.5859412</ele>
        <time>2019-01-10T14:08:30Z</time>
      </trkpt>
      <trkpt lat="44.39893" lon="1.45349">
        <ele>143.68604</ele>
        <time>2019-01-10T14:08:42Z</time>
      </trkpt>
      <trkpt lat="44.39885" lon="1.45351">
        <ele>145.285964</ele>
        <time>2019-01-10T14:08:50Z</time>
      </trkpt>
      <trkpt lat="44.39877" lon="1.45348">
        <ele>136.186068</ele>
        <time>2019-01-10T14:09:09Z</time>
      </trkpt>
      <trkpt lat="44.3987" lon="1.45343">
        <ele>139.0862724</ele>
        <time>2019-01-10T14:09:21Z</time>
      </trkpt>
      <trkpt lat="44.39861" lon="1.4534">
        <ele>147.4863916</ele>
        <time>2019-01-10T14:09:31Z</time>
      </trkpt>
      <trkpt lat="44.39856" lon="1.45345">
        <ele>150.8862068</ele>
        <time>2019-01-10T14:09:59Z</time>
      </trkpt>
      <trkpt lat="44.39852" lon="1.45357">
        <ele>140.4857252</ele>
        <time>2019-01-10T14:10:03Z</time>
      </trkpt>
      <trkpt lat="44.39845" lon="1.45364">
        <ele>146.0854504</ele>
        <time>2019-01-10T14:10:13Z</time>
      </trkpt>
      <trkpt lat="44.39837" lon="1.45367">
        <ele>153.5853388</ele>
        <time>2019-01-10T14:10:24Z</time>
      </trkpt>
      <trkpt lat="44.3983" lon="1.4536">
        <ele>146.6855928</ele>
        <time>2019-01-10T14:10:38Z</time>
      </trkpt>
      <trkpt lat="44.39823" lon="1.45361">
        <ele>150.3855584</ele>
        <time>2019-01-10T14:11:02Z</time>
      </trkpt>
      <trkpt lat="44.39817" lon="1.45369">
        <ele>151.9852568</ele>
        <time>2019-01-10T14:11:08Z</time>
      </trkpt>
      <trkpt lat="44.39811" lon="1.45377">
        <ele>154.4849136</ele>
        <time>2019-01-10T14:11:17Z</time>
      </trkpt>
      <trkpt lat="44.39806" lon="1.45387">
        <ele>155.3845152</ele>
        <time>2019-01-10T14:11:30Z</time>
      </trkpt>
      <trkpt lat="44.398" lon="1.45395">
        <ele>156.5841928</ele>
        <time>2019-01-10T14:11:47Z</time>
      </trkpt>
      <trkpt lat="44.39792" lon="1.45399">
        <ele>156.7840268</ele>
        <time>2019-01-10T14:12:11Z</time>
      </trkpt>
      <trkpt lat="44.39789" lon="1.4541">
        <ele>165.8835932</ele>
        <time>2019-01-10T14:12:18Z</time>
      </trkpt>
      <trkpt lat="44.39789" lon="1.45422">
        <ele>169.5831212</ele>
        <time>2019-01-10T14:12:30Z</time>
      </trkpt>
      <trkpt lat="44.39787" lon="1.45434">
        <ele>171.182652</ele>
        <time>2019-01-10T14:12:46Z</time>
      </trkpt>
      <trkpt lat="44.39782" lon="1.45443">
        <ele>174.3822924</ele>
        <time>2019-01-10T14:12:55Z</time>
      </trkpt>
      <trkpt lat="44.39777" lon="1.45452">
        <ele>172.98191</ele>
        <time>2019-01-10T14:13:05Z</time>
      </trkpt>
      <trkpt lat="44.39772" lon="1.45459">
        <ele>171.281628</ele>
        <time>2019-01-10T14:13:15Z</time>
      </trkpt>
      <trkpt lat="44.39768" lon="1.4547">
        <ele>168.8811928</ele>
        <time>2019-01-10T14:13:49Z</time>
      </trkpt>
      <trkpt lat="44.39762" lon="1.45478">
        <ele>172.080882</ele>
        <time>2019-01-10T14:13:58Z</time>
      </trkpt>
      <trkpt lat="44.39757" lon="1.45487">
        <ele>160.7805124</ele>
        <time>2019-01-10T14:14:16Z</time>
      </trkpt>
      <trkpt lat="44.39753" lon="1.45497">
        <ele>162.9801048</ele>
        <time>2019-01-10T14:14:24Z</time>
      </trkpt>
      <trkpt lat="44.39749" lon="1.45508">
        <ele>167.5796952</ele>
        <time>2019-01-10T14:14:34Z</time>
      </trkpt>
      <trkpt lat="44.39745" lon="1.45519">
        <ele>168.77926</ele>
        <time>2019-01-10T14:14:50Z</time>
      </trkpt>
      <trkpt lat="44.3974" lon="1.45528">
        <ele>168.5788628</ele>
        <time>2019-01-10T14:15:01Z</time>
      </trkpt>
      <trkpt lat="44.39736" lon="1.45538">
        <ele>171.97849</ele>
        <time>2019-01-10T14:15:12Z</time>
      </trkpt>
      <trkpt lat="44.39731" lon="1.45547">
        <ele>172.1781212</ele>
        <time>2019-01-10T14:15:22Z</time>
      </trkpt>
      <trkpt lat="44.39727" lon="1.45556">
        <ele>176.877744</ele>
        <time>2019-01-10T14:15:30Z</time>
      </trkpt>
      <trkpt lat="44.39723" lon="1.45567">
        <ele>176.97733</ele>
        <time>2019-01-10T14:15:38Z</time>
      </trkpt>
      <trkpt lat="44.39719" lon="1.45578">
        <ele>175.2768944</ele>
        <time>2019-01-10T14:15:48Z</time>
      </trkpt>
      <trkpt lat="44.39714" lon="1.45587">
        <ele>175.576508</ele>
        <time>2019-01-10T14:15:57Z</time>
      </trkpt>
      <trkpt lat="44.39707" lon="1.45594">
        <ele>179.4762308</ele>
        <time>2019-01-10T14:16:10Z</time>
      </trkpt>
      <trkpt lat="44.39701" lon="1.45601">
        <ele>180.3759732</ele>
        <time>2019-01-10T14:17:10Z</time>
      </trkpt>
      <trkpt lat="44.39693" lon="1.45605">
        <ele>171.67581</ele>
        <time>2019-01-10T14:17:14Z</time>
      </trkpt>
      <trkpt lat="44.39685" lon="1.45598">
        <ele>171.0760876</ele>
        <time>2019-01-10T14:18:10Z</time>
      </trkpt>
      <trkpt lat="44.39677" lon="1.45593">
        <ele>166.9762744</ele>
        <time>2019-01-10T14:18:29Z</time>
      </trkpt>
      <trkpt lat="44.39672" lon="1.45583">
        <ele>147.17668</ele>
        <time>2019-01-10T14:18:44Z</time>
      </trkpt>
      <trkpt lat="44.39673" lon="1.45592">
        <ele>156.9763336</ele>
        <time>2019-01-10T14:19:30Z</time>
      </trkpt>
      <trkpt lat="44.39666" lon="1.456">
        <ele>164.2760032</ele>
        <time>2019-01-10T14:19:35Z</time>
      </trkpt>
      <trkpt lat="44.39658" lon="1.45594">
        <ele>160.1762592</ele>
        <time>2019-01-10T14:19:45Z</time>
      </trkpt>
      <trkpt lat="44.39655" lon="1.45582">
        <ele>134.376708</ele>
        <time>2019-01-10T14:21:06Z</time>
      </trkpt>
      <trkpt lat="44.39648" lon="1.45582">
        <ele>144.6767096</ele>
        <time>2019-01-10T14:21:21Z</time>
      </trkpt>
      <trkpt lat="44.39641" lon="1.45584">
        <ele>151.1766548</ele>
        <time>2019-01-10T14:21:39Z</time>
      </trkpt>
      <trkpt lat="44.39634" lon="1.45584">
        <ele>151.07666</ele>
        <time>2019-01-10T14:22:29Z</time>
      </trkpt>
      <trkpt lat="44.39637" lon="1.45572">
        <ele>110.8771136</ele>
        <time>2019-01-10T14:23:16Z</time>
      </trkpt>
      <trkpt lat="44.39645" lon="1.45574">
        <ele>142.9770468</ele>
        <time>2019-01-10T14:24:52Z</time>
      </trkpt>
      <trkpt lat="44.3965" lon="1.4558">
        <ele>122.1767984</ele>
        <time>2019-01-10T14:25:10Z</time>
      </trkpt>
      <trkpt lat="44.39634" lon="1.45569">
        <ele>122.3772572</ele>
        <time>2019-01-10T14:25:13Z</time>
      </trkpt>
      <trkpt lat="44.39627" lon="1.45563">
        <ele>124.1774768</ele>
        <time>2019-01-10T14:25:21Z</time>
      </trkpt>
      <trkpt lat="44.39631" lon="1.45574">
        <ele>125.1770452</ele>
        <time>2019-01-10T14:25:52Z</time>
      </trkpt>
      <trkpt lat="44.39637" lon="1.45564">
        <ele>132.477452</ele>
        <time>2019-01-10T14:28:03Z</time>
      </trkpt>
      <trkpt lat="44.3963" lon="1.4557">
        <ele>139.8771888</ele>
        <time>2019-01-10T14:28:20Z</time>
      </trkpt>
      <trkpt lat="44.39622" lon="1.45569">
        <ele>140.4772324</ele>
        <time>2019-01-10T14:28:32Z</time>
      </trkpt>
      <trkpt lat="44.3962" lon="1.45558">
        <ele>143.5776868</ele>
        <time>2019-01-10T14:29:06Z</time>
      </trkpt>
      <trkpt lat="44.39626" lon="1.45549">
        <ele>141.9780616</ele>
        <time>2019-01-10T14:29:14Z</time>
      </trkpt>
      <trkpt lat="44.39632" lon="1.45558">
        <ele>137.9776956</ele>
        <time>2019-01-10T14:30:16Z</time>
      </trkpt>
      <trkpt lat="44.39637" lon="1.45548">
        <ele>133.0780804</ele>
        <time>2019-01-10T14:30:35Z</time>
      </trkpt>
      <trkpt lat="44.39638" lon="1.45536">
        <ele>135.2785476</ele>
        <time>2019-01-10T14:30:43Z</time>
      </trkpt>
      <trkpt lat="44.39642" lon="1.45525">
        <ele>137.5790084</ele>
        <time>2019-01-10T14:30:50Z</time>
      </trkpt>
      <trkpt lat="44.39645" lon="1.45513">
        <ele>134.0794652</ele>
        <time>2019-01-10T14:30:55Z</time>
      </trkpt>
      <trkpt lat="44.39649" lon="1.45502">
        <ele>133.9799184</ele>
        <time>2019-01-10T14:31:01Z</time>
      </trkpt>
      <trkpt lat="44.3965" lon="1.45492">
        <ele>133.780326</ele>
        <time>2019-01-10T14:31:06Z</time>
      </trkpt>
      <trkpt lat="44.39651" lon="1.4548">
        <ele>134.980802</ele>
        <time>2019-01-10T14:31:12Z</time>
      </trkpt>
      <trkpt lat="44.39654" lon="1.4547">
        <ele>136.2812148</ele>
        <time>2019-01-10T14:31:21Z</time>
      </trkpt>
      <trkpt lat="44.3966" lon="1.45461">
        <ele>132.281556</ele>
        <time>2019-01-10T14:31:28Z</time>
      </trkpt>
      <trkpt lat="44.39667" lon="1.45454">
        <ele>126.3818396</ele>
        <time>2019-01-10T14:31:37Z</time>
      </trkpt>
      <trkpt lat="44.39675" lon="1.45448">
        <ele>123.9820848</ele>
        <time>2019-01-10T14:31:47Z</time>
      </trkpt>
      <trkpt lat="44.39679" lon="1.45439">
        <ele>122.982458</ele>
        <time>2019-01-10T14:31:53Z</time>
      </trkpt>
      <trkpt lat="44.39681" lon="1.45428">
        <ele>123.182872</ele>
        <time>2019-01-10T14:31:58Z</time>
      </trkpt>
      <trkpt lat="44.39683" lon="1.45417">
        <ele>126.1833364</ele>
        <time>2019-01-10T14:32:04Z</time>
      </trkpt>
      <trkpt lat="44.39682" lon="1.45405">
        <ele>129.1838104</ele>
        <time>2019-01-10T14:32:10Z</time>
      </trkpt>
      <trkpt lat="44.39682" lon="1.45393">
        <ele>129.5842736</ele>
        <time>2019-01-10T14:32:17Z</time>
      </trkpt>
      <trkpt lat="44.39684" lon="1.45383">
        <ele>129.6846896</ele>
        <time>2019-01-10T14:32:24Z</time>
      </trkpt>
      <trkpt lat="44.39688" lon="1.45371">
        <ele>129.7851456</ele>
        <time>2019-01-10T14:32:30Z</time>
      </trkpt>
      <trkpt lat="44.39689" lon="1.45366">
        <ele>129.8853664</ele>
        <time>2019-01-10T14:32:33Z</time>
      </trkpt>
      <trkpt lat="44.39692" lon="1.45355">
        <ele>129.8858204</ele>
        <time>2019-01-10T14:32:38Z</time>
      </trkpt>
      <trkpt lat="44.39689" lon="1.45344">
        <ele>125.58623</ele>
        <time>2019-01-10T14:32:54Z</time>
      </trkpt>
      <trkpt lat="44.39686" lon="1.45332">
        <ele>125.086708</ele>
        <time>2019-01-10T14:32:59Z</time>
      </trkpt>
      <trkpt lat="44.39681" lon="1.45324">
        <ele>124.4870388</ele>
        <time>2019-01-10T14:33:05Z</time>
      </trkpt>
      <trkpt lat="44.39674" lon="1.45319">
        <ele>124.0872488</ele>
        <time>2019-01-10T14:33:11Z</time>
      </trkpt>
      <trkpt lat="44.39667" lon="1.45313">
        <ele>122.687468</ele>
        <time>2019-01-10T14:33:18Z</time>
      </trkpt>
      <trkpt lat="44.39658" lon="1.4531">
        <ele>115.6876172</ele>
        <time>2019-01-10T14:33:29Z</time>
      </trkpt>
      <trkpt lat="44.3965" lon="1.45307">
        <ele>110.6877044</ele>
        <time>2019-01-10T14:33:36Z</time>
      </trkpt>
      <trkpt lat="44.39645" lon="1.45302">
        <ele>108.0879372</ele>
        <time>2019-01-10T14:33:42Z</time>
      </trkpt>
      <trkpt lat="44.39637" lon="1.45306">
        <ele>98.2877712</ele>
        <time>2019-01-10T14:33:53Z</time>
      </trkpt>
      <trkpt lat="44.39629" lon="1.45311">
        <ele>89.4875588</ele>
        <time>2019-01-10T14:34:03Z</time>
      </trkpt>
      <trkpt lat="44.39623" lon="1.45304">
        <ele>86.0878548</ele>
        <time>2019-01-10T14:34:11Z</time>
      </trkpt>
      <trkpt lat="44.39618" lon="1.45294">
        <ele>83.6882248</ele>
        <time>2019-01-10T14:34:18Z</time>
      </trkpt>
      <trkpt lat="44.39612" lon="1.45288">
        <ele>83.1885012</ele>
        <time>2019-01-10T14:34:25Z</time>
      </trkpt>
      <trkpt lat="44.39605" lon="1.45283">
        <ele>83.8886776</ele>
        <time>2019-01-10T14:34:32Z</time>
      </trkpt>
      <trkpt lat="44.39598" lon="1.45279">
        <ele>85.188848</ele>
        <time>2019-01-10T14:34:38Z</time>
      </trkpt>
      <trkpt lat="44.3959" lon="1.45275">
        <ele>81.9890128</ele>
        <time>2019-01-10T14:34:59Z</time>
      </trkpt>
      <trkpt lat="44.39577" lon="1.45277">
        <ele>88.6889252</ele>
        <time>2019-01-10T14:35:03Z</time>
      </trkpt>
      <trkpt lat="44.39569" lon="1.45275">
        <ele>91.3889852</ele>
        <time>2019-01-10T14:35:06Z</time>
      </trkpt>
      <trkpt lat="44.39563" lon="1.45273">
        <ele>94.889072</ele>
        <time>2019-01-10T14:35:09Z</time>
      </trkpt>
      <trkpt lat="44.39556" lon="1.45269">
        <ele>98.4892492</ele>
        <time>2019-01-10T14:35:13Z</time>
      </trkpt>
      <trkpt lat="44.3955" lon="1.45263">
        <ele>100.6894676</ele>
        <time>2019-01-10T14:35:17Z</time>
      </trkpt>
      <trkpt lat="44.39544" lon="1.45257">
        <ele>102.9897224</ele>
        <time>2019-01-10T14:35:22Z</time>
      </trkpt>
      <trkpt lat="44.39537" lon="1.45251">
        <ele>104.989964</ele>
        <time>2019-01-10T14:35:28Z</time>
      </trkpt>
      <trkpt lat="44.39529" lon="1.45248">
        <ele>105.9900924</ele>
        <time>2019-01-10T14:35:35Z</time>
      </trkpt>
      <trkpt lat="44.3952" lon="1.45247">
        <ele>110.5901324</ele>
        <time>2019-01-10T14:35:44Z</time>
      </trkpt>
      <trkpt lat="44.39514" lon="1.45244">
        <ele>111.9902556</ele>
        <time>2019-01-10T14:35:49Z</time>
      </trkpt>
      <trkpt lat="44.39507" lon="1.45238">
        <ele>112.9904928</ele>
        <time>2019-01-10T14:35:55Z</time>
      </trkpt>
      <trkpt lat="44.39502" lon="1.45231">
        <ele>112.5907724</ele>
        <time>2019-01-10T14:36:01Z</time>
      </trkpt>
      <trkpt lat="44.39495" lon="1.45222">
        <ele>108.1911152</ele>
        <time>2019-01-10T14:36:10Z</time>
      </trkpt>
      <trkpt lat="44.39491" lon="1.45211">
        <ele>95.0915444</ele>
        <time>2019-01-10T14:36:21Z</time>
      </trkpt>
      <trkpt lat="44.39482" lon="1.45208">
        <ele>80.5916756</ele>
        <time>2019-01-10T14:36:35Z</time>
      </trkpt>
      <trkpt lat="44.39478" lon="1.45199">
        <ele>72.1920392</ele>
        <time>2019-01-10T14:36:43Z</time>
      </trkpt>
      <trkpt lat="44.3947" lon="1.45193">
        <ele>69.4922688</ele>
        <time>2019-01-10T14:36:50Z</time>
      </trkpt>
      <trkpt lat="44.39463" lon="1.45188">
        <ele>70.2924876</ele>
        <time>2019-01-10T14:36:55Z</time>
      </trkpt>
      <trkpt lat="44.39455" lon="1.45187">
        <ele>68.692504</ele>
        <time>2019-01-10T14:37:03Z</time>
      </trkpt>
      <trkpt lat="44.39447" lon="1.45187">
        <ele>70.292516</ele>
        <time>2019-01-10T14:37:08Z</time>
      </trkpt>
      <trkpt lat="44.39438" lon="1.45184">
        <ele>73.4926304</ele>
        <time>2019-01-10T14:37:13Z</time>
      </trkpt>
      <trkpt lat="44.3943" lon="1.45188">
        <ele>76.2924952</ele>
        <time>2019-01-10T14:37:19Z</time>
      </trkpt>
      <trkpt lat="44.39422" lon="1.4519">
        <ele>80.2923916</ele>
        <time>2019-01-10T14:37:25Z</time>
      </trkpt>
      <trkpt lat="44.39415" lon="1.45192">
        <ele>85.092332</ele>
        <time>2019-01-10T14:37:30Z</time>
      </trkpt>
      <trkpt lat="44.39407" lon="1.45189">
        <ele>92.39244</ele>
        <time>2019-01-10T14:37:35Z</time>
      </trkpt>
      <trkpt lat="44.39398" lon="1.45187">
        <ele>98.3925316</ele>
        <time>2019-01-10T14:37:41Z</time>
      </trkpt>
      <trkpt lat="44.39391" lon="1.45191">
        <ele>101.6923804</ele>
        <time>2019-01-10T14:37:51Z</time>
      </trkpt>
      <trkpt lat="44.39383" lon="1.45191">
        <ele>106.2923548</ele>
        <time>2019-01-10T14:37:59Z</time>
      </trkpt>
      <trkpt lat="44.39376" lon="1.45191">
        <ele>106.592374</ele>
        <time>2019-01-10T14:38:03Z</time>
      </trkpt>
      <trkpt lat="44.39367" lon="1.45193">
        <ele>105.4922904</ele>
        <time>2019-01-10T14:38:09Z</time>
      </trkpt>
      <trkpt lat="44.3936" lon="1.45193">
        <ele>105.9922824</ele>
        <time>2019-01-10T14:38:14Z</time>
      </trkpt>
      <trkpt lat="44.39351" lon="1.45193">
        <ele>104.9922972</ele>
        <time>2019-01-10T14:38:21Z</time>
      </trkpt>
      <trkpt lat="44.39344" lon="1.45188">
        <ele>104.7924724</ele>
        <time>2019-01-10T14:38:28Z</time>
      </trkpt>
      <trkpt lat="44.39335" lon="1.45191">
        <ele>102.7923436</ele>
        <time>2019-01-10T14:38:35Z</time>
      </trkpt>
      <trkpt lat="44.39327" lon="1.45195">
        <ele>103.992194</ele>
        <time>2019-01-10T14:38:41Z</time>
      </trkpt>
      <trkpt lat="44.39319" lon="1.45197">
        <ele>106.4921168</ele>
        <time>2019-01-10T14:38:47Z</time>
      </trkpt>
      <trkpt lat="44.39311" lon="1.45195">
        <ele>110.6922008</ele>
        <time>2019-01-10T14:38:53Z</time>
      </trkpt>
      <trkpt lat="44.39302" lon="1.45195">
        <ele>115.992194</ele>
        <time>2019-01-10T14:39:01Z</time>
      </trkpt>
      <trkpt lat="44.39295" lon="1.45198">
        <ele>121.7920756</ele>
        <time>2019-01-10T14:39:11Z</time>
      </trkpt>
      <trkpt lat="44.39287" lon="1.452">
        <ele>123.7920188</ele>
        <time>2019-01-10T14:39:18Z</time>
      </trkpt>
      <trkpt lat="44.39278" lon="1.45201">
        <ele>124.7919464</ele>
        <time>2019-01-10T14:39:26Z</time>
      </trkpt>
      <trkpt lat="44.39269" lon="1.45203">
        <ele>125.6918772</ele>
        <time>2019-01-10T14:39:35Z</time>
      </trkpt>
      <trkpt lat="44.39263" lon="1.45208">
        <ele>123.1916732</ele>
        <time>2019-01-10T14:39:42Z</time>
      </trkpt>
      <trkpt lat="44.39254" lon="1.45207">
        <ele>122.4917272</ele>
        <time>2019-01-10T14:39:51Z</time>
      </trkpt>
      <trkpt lat="44.39246" lon="1.45204">
        <ele>121.091848</ele>
        <time>2019-01-10T14:40:00Z</time>
      </trkpt>
      <trkpt lat="44.39238" lon="1.45209">
        <ele>114.0916548</ele>
        <time>2019-01-10T14:40:10Z</time>
      </trkpt>
      <trkpt lat="44.39233" lon="1.45211">
        <ele>112.791562</ele>
        <time>2019-01-10T14:40:15Z</time>
      </trkpt>
      <trkpt lat="44.39226" lon="1.45218">
        <ele>111.8912812</ele>
        <time>2019-01-10T14:40:20Z</time>
      </trkpt>
      <trkpt lat="44.3922" lon="1.4522">
        <ele>110.8911964</ele>
        <time>2019-01-10T14:40:24Z</time>
      </trkpt>
      <trkpt lat="44.39212" lon="1.45224">
        <ele>111.0910424</ele>
        <time>2019-01-10T14:40:29Z</time>
      </trkpt>
      <trkpt lat="44.39203" lon="1.45223">
        <ele>114.5910972</ele>
        <time>2019-01-10T14:40:36Z</time>
      </trkpt>
      <trkpt lat="44.39196" lon="1.45217">
        <ele>121.2913176</ele>
        <time>2019-01-10T14:40:42Z</time>
      </trkpt>
      <trkpt lat="44.39188" lon="1.45213">
        <ele>127.2914756</ele>
        <time>2019-01-10T14:40:48Z</time>
      </trkpt>
      <trkpt lat="44.39179" lon="1.45211">
        <ele>130.1915764</ele>
        <time>2019-01-10T14:40:54Z</time>
      </trkpt>
      <trkpt lat="44.39171" lon="1.4521">
        <ele>132.2915952</ele>
        <time>2019-01-10T14:41:01Z</time>
      </trkpt>
      <trkpt lat="44.39164" lon="1.4521">
        <ele>134.1915952</ele>
        <time>2019-01-10T14:41:06Z</time>
      </trkpt>
      <trkpt lat="44.39155" lon="1.45212">
        <ele>134.791534</ele>
        <time>2019-01-10T14:41:12Z</time>
      </trkpt>
      <trkpt lat="44.39147" lon="1.45216">
        <ele>134.8913768</ele>
        <time>2019-01-10T14:41:18Z</time>
      </trkpt>
      <trkpt lat="44.3914" lon="1.45218">
        <ele>136.291284</ele>
        <time>2019-01-10T14:41:24Z</time>
      </trkpt>
      <trkpt lat="44.39131" lon="1.45221">
        <ele>137.4911628</ele>
        <time>2019-01-10T14:41:32Z</time>
      </trkpt>
      <trkpt lat="44.39124" lon="1.45217">
        <ele>130.2913124</ele>
        <time>2019-01-10T14:41:42Z</time>
      </trkpt>
      <trkpt lat="44.39118" lon="1.45224">
        <ele>120.4910512</ele>
        <time>2019-01-10T14:41:49Z</time>
      </trkpt>
      <trkpt lat="44.39113" lon="1.45232">
        <ele>110.7907332</ele>
        <time>2019-01-10T14:41:57Z</time>
      </trkpt>
      <trkpt lat="44.39107" lon="1.4524">
        <ele>102.4903872</ele>
        <time>2019-01-10T14:42:05Z</time>
      </trkpt>
      <trkpt lat="44.39101" lon="1.45246">
        <ele>94.5901536</ele>
        <time>2019-01-10T14:42:13Z</time>
      </trkpt>
      <trkpt lat="44.39093" lon="1.45245">
        <ele>94.2902068</ele>
        <time>2019-01-10T14:42:22Z</time>
      </trkpt>
      <trkpt lat="44.39085" lon="1.4524">
        <ele>95.9904104</ele>
        <time>2019-01-10T14:42:29Z</time>
      </trkpt>
      <trkpt lat="44.39077" lon="1.45236">
        <ele>100.3905436</ele>
        <time>2019-01-10T14:42:36Z</time>
      </trkpt>
      <trkpt lat="44.39068" lon="1.45233">
        <ele>104.7906652</ele>
        <time>2019-01-10T14:42:44Z</time>
      </trkpt>
      <trkpt lat="44.3906" lon="1.4523">
        <ele>109.690786</ele>
        <time>2019-01-10T14:42:51Z</time>
      </trkpt>
      <trkpt lat="44.39052" lon="1.45227">
        <ele>113.7909276</ele>
        <time>2019-01-10T14:42:59Z</time>
      </trkpt>
      <trkpt lat="44.39044" lon="1.45221">
        <ele>118.6911424</ele>
        <time>2019-01-10T14:43:06Z</time>
      </trkpt>
      <trkpt lat="44.39036" lon="1.45216">
        <ele>122.4913548</ele>
        <time>2019-01-10T14:43:12Z</time>
      </trkpt>
      <trkpt lat="44.39028" lon="1.45216">
        <ele>124.3913444</ele>
        <time>2019-01-10T14:43:21Z</time>
      </trkpt>
      <trkpt lat="44.39021" lon="1.45216">
        <ele>128.4913672</ele>
        <time>2019-01-10T14:43:29Z</time>
      </trkpt>
      <trkpt lat="44.39013" lon="1.45212">
        <ele>134.3915228</ele>
        <time>2019-01-10T14:43:36Z</time>
      </trkpt>
      <trkpt lat="44.39005" lon="1.45213">
        <ele>137.1914756</ele>
        <time>2019-01-10T14:43:42Z</time>
      </trkpt>
      <trkpt lat="44.38996" lon="1.45214">
        <ele>138.9914364</ele>
        <time>2019-01-10T14:43:51Z</time>
      </trkpt>
      <trkpt lat="44.38988" lon="1.45214">
        <ele>136.791448</ele>
        <time>2019-01-10T14:44:02Z</time>
      </trkpt>
      <trkpt lat="44.38982" lon="1.45223">
        <ele>131.0910848</ele>
        <time>2019-01-10T14:44:09Z</time>
      </trkpt>
      <trkpt lat="44.38975" lon="1.45227">
        <ele>129.7909164</ele>
        <time>2019-01-10T14:44:15Z</time>
      </trkpt>
      <trkpt lat="44.38967" lon="1.45226">
        <ele>130.2909552</ele>
        <time>2019-01-10T14:44:21Z</time>
      </trkpt>
      <trkpt lat="44.38959" lon="1.45225">
        <ele>132.591018</ele>
        <time>2019-01-10T14:44:29Z</time>
      </trkpt>
      <trkpt lat="44.3895" lon="1.45223">
        <ele>134.3910648</ele>
        <time>2019-01-10T14:44:36Z</time>
      </trkpt>
      <trkpt lat="44.38942" lon="1.45224">
        <ele>137.5910568</ele>
        <time>2019-01-10T14:44:44Z</time>
      </trkpt>
      <trkpt lat="44.38934" lon="1.45224">
        <ele>137.6910452</ele>
        <time>2019-01-10T14:44:52Z</time>
      </trkpt>
      <trkpt lat="44.38926" lon="1.45226">
        <ele>137.1909664</ele>
        <time>2019-01-10T14:44:59Z</time>
      </trkpt>
      <trkpt lat="44.38919" lon="1.45232">
        <ele>132.1907388</ele>
        <time>2019-01-10T14:45:08Z</time>
      </trkpt>
      <trkpt lat="44.38915" lon="1.45239">
        <ele>128.2904404</ele>
        <time>2019-01-10T14:45:13Z</time>
      </trkpt>
      <trkpt lat="44.38908" lon="1.45245">
        <ele>122.6902212</ele>
        <time>2019-01-10T14:45:22Z</time>
      </trkpt>
      <trkpt lat="44.389" lon="1.45248">
        <ele>120.1900972</ele>
        <time>2019-01-10T14:45:33Z</time>
      </trkpt>
      <trkpt lat="44.38891" lon="1.45251">
        <ele>123.8899692</ele>
        <time>2019-01-10T14:45:46Z</time>
      </trkpt>
      <trkpt lat="44.38883" lon="1.45254">
        <ele>127.9898224</ele>
        <time>2019-01-10T14:45:54Z</time>
      </trkpt>
      <trkpt lat="44.38875" lon="1.45255">
        <ele>129.78981</ele>
        <time>2019-01-10T14:46:02Z</time>
      </trkpt>
      <trkpt lat="44.38867" lon="1.45257">
        <ele>129.8897144</ele>
        <time>2019-01-10T14:46:12Z</time>
      </trkpt>
      <trkpt lat="44.38859" lon="1.45261">
        <ele>124.2895472</ele>
        <time>2019-01-10T14:46:17Z</time>
      </trkpt>
      <trkpt lat="44.38851" lon="1.45264">
        <ele>125.6894328</ele>
        <time>2019-01-10T14:46:22Z</time>
      </trkpt>
      <trkpt lat="44.38843" lon="1.45267">
        <ele>123.7893232</ele>
        <time>2019-01-10T14:46:29Z</time>
      </trkpt>
      <trkpt lat="44.38835" lon="1.45267">
        <ele>122.6893396</ele>
        <time>2019-01-10T14:46:35Z</time>
      </trkpt>
      <trkpt lat="44.38827" lon="1.45266">
        <ele>124.4893552</ele>
        <time>2019-01-10T14:46:41Z</time>
      </trkpt>
      <trkpt lat="44.38819" lon="1.45265">
        <ele>127.6894008</ele>
        <time>2019-01-10T14:46:48Z</time>
      </trkpt>
      <trkpt lat="44.38811" lon="1.45268">
        <ele>126.4892872</ele>
        <time>2019-01-10T14:46:53Z</time>
      </trkpt>
      <trkpt lat="44.38802" lon="1.45267">
        <ele>129.8893168</ele>
        <time>2019-01-10T14:46:59Z</time>
      </trkpt>
      <trkpt lat="44.38794" lon="1.45266">
        <ele>133.4893516</ele>
        <time>2019-01-10T14:47:08Z</time>
      </trkpt>
      <trkpt lat="44.38786" lon="1.45265">
        <ele>138.6894008</ele>
        <time>2019-01-10T14:47:16Z</time>
      </trkpt>
      <trkpt lat="44.38778" lon="1.45268">
        <ele>137.4892836</ele>
        <time>2019-01-10T14:47:24Z</time>
      </trkpt>
      <trkpt lat="44.38772" lon="1.4527">
        <ele>136.9891828</ele>
        <time>2019-01-10T14:47:28Z</time>
      </trkpt>
      <trkpt lat="44.38764" lon="1.45273">
        <ele>136.8890708</ele>
        <time>2019-01-10T14:47:34Z</time>
      </trkpt>
      <trkpt lat="44.38756" lon="1.45273">
        <ele>136.4890748</ele>
        <time>2019-01-10T14:47:42Z</time>
      </trkpt>
      <trkpt lat="44.38748" lon="1.45274">
        <ele>135.78906</ele>
        <time>2019-01-10T14:47:50Z</time>
      </trkpt>
      <trkpt lat="44.3874" lon="1.45273">
        <ele>137.3891008</ele>
        <time>2019-01-10T14:47:57Z</time>
      </trkpt>
      <trkpt lat="44.38732" lon="1.45273">
        <ele>135.4890764</ele>
        <time>2019-01-10T14:48:05Z</time>
      </trkpt>
      <trkpt lat="44.38724" lon="1.45273">
        <ele>133.68907</ele>
        <time>2019-01-10T14:48:13Z</time>
      </trkpt>
      <trkpt lat="44.38716" lon="1.45277">
        <ele>131.488938</ele>
        <time>2019-01-10T14:48:24Z</time>
      </trkpt>
      <trkpt lat="44.38709" lon="1.45284">
        <ele>130.6886272</ele>
        <time>2019-01-10T14:48:33Z</time>
      </trkpt>
      <trkpt lat="44.387" lon="1.45287">
        <ele>129.6885236</ele>
        <time>2019-01-10T14:48:39Z</time>
      </trkpt>
      <trkpt lat="44.38692" lon="1.45288">
        <ele>131.3884876</ele>
        <time>2019-01-10T14:48:46Z</time>
      </trkpt>
      <trkpt lat="44.38683" lon="1.45289">
        <ele>131.4884508</ele>
        <time>2019-01-10T14:48:54Z</time>
      </trkpt>
      <trkpt lat="44.38675" lon="1.4529">
        <ele>132.5884124</ele>
        <time>2019-01-10T14:49:03Z</time>
      </trkpt>
      <trkpt lat="44.38667" lon="1.45289">
        <ele>136.688456</ele>
        <time>2019-01-10T14:49:09Z</time>
      </trkpt>
      <trkpt lat="44.38659" lon="1.45287">
        <ele>137.688516</ele>
        <time>2019-01-10T14:49:15Z</time>
      </trkpt>
      <trkpt lat="44.38651" lon="1.45284">
        <ele>139.9886336</ele>
        <time>2019-01-10T14:49:22Z</time>
      </trkpt>
      <trkpt lat="44.38642" lon="1.45283">
        <ele>140.9886664</ele>
        <time>2019-01-10T14:49:28Z</time>
      </trkpt>
      <trkpt lat="44.38634" lon="1.45283">
        <ele>139.9886956</ele>
        <time>2019-01-10T14:49:34Z</time>
      </trkpt>
      <trkpt lat="44.38626" lon="1.45278">
        <ele>137.6888764</ele>
        <time>2019-01-10T14:49:41Z</time>
      </trkpt>
      <trkpt lat="44.3862" lon="1.45273">
        <ele>135.789062</ele>
        <time>2019-01-10T14:49:47Z</time>
      </trkpt>
      <trkpt lat="44.38612" lon="1.45275">
        <ele>133.5890176</ele>
        <time>2019-01-10T14:49:55Z</time>
      </trkpt>
      <trkpt lat="44.38604" lon="1.45281">
        <ele>131.5887708</ele>
        <time>2019-01-10T14:50:01Z</time>
      </trkpt>
      <trkpt lat="44.38596" lon="1.45283">
        <ele>133.988678</ele>
        <time>2019-01-10T14:50:10Z</time>
      </trkpt>
      <trkpt lat="44.38588" lon="1.45283">
        <ele>133.9886664</ele>
        <time>2019-01-10T14:50:18Z</time>
      </trkpt>
      <trkpt lat="44.3858" lon="1.45286">
        <ele>134.5885548</ele>
        <time>2019-01-10T14:50:24Z</time>
      </trkpt>
      <trkpt lat="44.38574" lon="1.45295">
        <ele>131.0882148</ele>
        <time>2019-01-10T14:50:36Z</time>
      </trkpt>
      <trkpt lat="44.38567" lon="1.453">
        <ele>134.5880212</ele>
        <time>2019-01-10T14:51:05Z</time>
      </trkpt>
      <trkpt lat="44.38575" lon="1.45304">
        <ele>126.287852</ele>
        <time>2019-01-10T14:51:21Z</time>
      </trkpt>
      <trkpt lat="44.38567" lon="1.45307">
        <ele>129.5877228</ele>
        <time>2019-01-10T14:51:41Z</time>
      </trkpt>
      <trkpt lat="44.3856" lon="1.45313">
        <ele>128.5874692</ele>
        <time>2019-01-10T14:51:51Z</time>
      </trkpt>
      <trkpt lat="44.38552" lon="1.45319">
        <ele>130.8872504</ele>
        <time>2019-01-10T14:51:59Z</time>
      </trkpt>
      <trkpt lat="44.38545" lon="1.45324">
        <ele>131.2870332</ele>
        <time>2019-01-10T14:52:05Z</time>
      </trkpt>
      <trkpt lat="44.38539" lon="1.45333">
        <ele>132.9866964</ele>
        <time>2019-01-10T14:52:14Z</time>
      </trkpt>
      <trkpt lat="44.38534" lon="1.45342">
        <ele>135.0863116</ele>
        <time>2019-01-10T14:52:22Z</time>
      </trkpt>
      <trkpt lat="44.3853" lon="1.45353">
        <ele>134.3858816</ele>
        <time>2019-01-10T14:52:30Z</time>
      </trkpt>
      <trkpt lat="44.38529" lon="1.45365">
        <ele>134.4854216</ele>
        <time>2019-01-10T14:52:39Z</time>
      </trkpt>
      <trkpt lat="44.3853" lon="1.45375">
        <ele>134.8849856</ele>
        <time>2019-01-10T14:52:46Z</time>
      </trkpt>
      <trkpt lat="44.38526" lon="1.45386">
        <ele>134.28455</ele>
        <time>2019-01-10T14:52:54Z</time>
      </trkpt>
      <trkpt lat="44.38533" lon="1.45391">
        <ele>128.384364</ele>
        <time>2019-01-10T14:53:04Z</time>
      </trkpt>
      <trkpt lat="44.3853" lon="1.45402">
        <ele>134.3839024</ele>
        <time>2019-01-10T14:53:23Z</time>
      </trkpt>
      <trkpt lat="44.38522" lon="1.45405">
        <ele>135.383816</ele>
        <time>2019-01-10T14:53:30Z</time>
      </trkpt>
      <trkpt lat="44.38514" lon="1.4541">
        <ele>138.0835836</ele>
        <time>2019-01-10T14:53:40Z</time>
      </trkpt>
      <trkpt lat="44.38507" lon="1.45416">
        <ele>141.4833576</ele>
        <time>2019-01-10T14:53:48Z</time>
      </trkpt>
      <trkpt lat="44.38499" lon="1.4542">
        <ele>141.1831952</ele>
        <time>2019-01-10T14:53:53Z</time>
      </trkpt>
      <trkpt lat="44.38491" lon="1.4542">
        <ele>140.6831984</ele>
        <time>2019-01-10T14:53:58Z</time>
      </trkpt>
      <trkpt lat="44.38482" lon="1.45422">
        <ele>137.5831356</ele>
        <time>2019-01-10T14:54:10Z</time>
      </trkpt>
      <trkpt lat="44.38475" lon="1.45427">
        <ele>138.8829216</ele>
        <time>2019-01-10T14:54:18Z</time>
      </trkpt>
      <trkpt lat="44.38468" lon="1.45432">
        <ele>140.5827144</ele>
        <time>2019-01-10T14:54:26Z</time>
      </trkpt>
      <trkpt lat="44.3846" lon="1.45437">
        <ele>143.9825144</ele>
        <time>2019-01-10T14:54:34Z</time>
      </trkpt>
      <trkpt lat="44.38454" lon="1.45443">
        <ele>144.1823016</ele>
        <time>2019-01-10T14:54:39Z</time>
      </trkpt>
      <trkpt lat="44.38448" lon="1.45449">
        <ele>145.9820512</ele>
        <time>2019-01-10T14:54:44Z</time>
      </trkpt>
      <trkpt lat="44.3844" lon="1.45454">
        <ele>146.0818332</ele>
        <time>2019-01-10T14:54:50Z</time>
      </trkpt>
      <trkpt lat="44.38432" lon="1.45458">
        <ele>147.3816856</ele>
        <time>2019-01-10T14:55:02Z</time>
      </trkpt>
      <trkpt lat="44.38424" lon="1.45461">
        <ele>149.5815596</ele>
        <time>2019-01-10T14:55:12Z</time>
      </trkpt>
      <trkpt lat="44.38416" lon="1.45467">
        <ele>152.0813216</ele>
        <time>2019-01-10T14:55:22Z</time>
      </trkpt>
      <trkpt lat="44.38408" lon="1.4547">
        <ele>153.0811888</ele>
        <time>2019-01-10T14:55:30Z</time>
      </trkpt>
      <trkpt lat="44.38402" lon="1.45474">
        <ele>153.8810496</ele>
        <time>2019-01-10T14:55:36Z</time>
      </trkpt>
      <trkpt lat="44.38394" lon="1.4548">
        <ele>155.6808124</ele>
        <time>2019-01-10T14:55:44Z</time>
      </trkpt>
      <trkpt lat="44.38387" lon="1.45486">
        <ele>155.0805576</ele>
        <time>2019-01-10T14:55:53Z</time>
      </trkpt>
      <trkpt lat="44.38381" lon="1.45495">
        <ele>149.4802128</ele>
        <time>2019-01-10T14:56:02Z</time>
      </trkpt>
      <trkpt lat="44.38374" lon="1.45503">
        <ele>147.7798644</ele>
        <time>2019-01-10T14:56:15Z</time>
      </trkpt>
      <trkpt lat="44.38367" lon="1.45509">
        <ele>148.779634</ele>
        <time>2019-01-10T14:56:24Z</time>
      </trkpt>
      <trkpt lat="44.38359" lon="1.45515">
        <ele>151.2794052</ele>
        <time>2019-01-10T14:56:32Z</time>
      </trkpt>
      <trkpt lat="44.38353" lon="1.45522">
        <ele>154.3791348</ele>
        <time>2019-01-10T14:56:41Z</time>
      </trkpt>
      <trkpt lat="44.38345" lon="1.45529">
        <ele>156.878834</ele>
        <time>2019-01-10T14:56:49Z</time>
      </trkpt>
      <trkpt lat="44.38339" lon="1.45537">
        <ele>158.978536</ele>
        <time>2019-01-10T14:56:55Z</time>
      </trkpt>
      <trkpt lat="44.38334" lon="1.45544">
        <ele>160.7782264</ele>
        <time>2019-01-10T14:57:00Z</time>
      </trkpt>
      <trkpt lat="44.38329" lon="1.45553">
        <ele>162.2778836</ele>
        <time>2019-01-10T14:57:07Z</time>
      </trkpt>
      <trkpt lat="44.38324" lon="1.45563">
        <ele>164.2774712</ele>
        <time>2019-01-10T14:57:15Z</time>
      </trkpt>
      <trkpt lat="44.38319" lon="1.45573">
        <ele>166.2770696</ele>
        <time>2019-01-10T14:57:23Z</time>
      </trkpt>
      <trkpt lat="44.38314" lon="1.45582">
        <ele>167.6767052</ele>
        <time>2019-01-10T14:57:32Z</time>
      </trkpt>
      <trkpt lat="44.38309" lon="1.45591">
        <ele>167.7763552</ele>
        <time>2019-01-10T14:57:41Z</time>
      </trkpt>
      <trkpt lat="44.38301" lon="1.45598">
        <ele>169.37608</ele>
        <time>2019-01-10T14:57:50Z</time>
      </trkpt>
      <trkpt lat="44.38297" lon="1.45606">
        <ele>168.7757672</ele>
        <time>2019-01-10T14:57:55Z</time>
      </trkpt>
      <trkpt lat="44.3829" lon="1.45612">
        <ele>170.0755168</ele>
        <time>2019-01-10T14:58:00Z</time>
      </trkpt>
      <trkpt lat="44.38284" lon="1.45618">
        <ele>170.8752668</ele>
        <time>2019-01-10T14:58:06Z</time>
      </trkpt>
      <trkpt lat="44.3828" lon="1.45625">
        <ele>171.6749996</ele>
        <time>2019-01-10T14:58:12Z</time>
      </trkpt>
      <trkpt lat="44.38274" lon="1.45633">
        <ele>172.774694</ele>
        <time>2019-01-10T14:58:18Z</time>
      </trkpt>
      <trkpt lat="44.38267" lon="1.45638">
        <ele>173.9744872</ele>
        <time>2019-01-10T14:58:34Z</time>
      </trkpt>
      <trkpt lat="44.3826" lon="1.45645">
        <ele>175.8742088</ele>
        <time>2019-01-10T14:58:43Z</time>
      </trkpt>
      <trkpt lat="44.38254" lon="1.45652">
        <ele>177.873904</ele>
        <time>2019-01-10T14:58:51Z</time>
      </trkpt>
      <trkpt lat="44.38247" lon="1.4566">
        <ele>177.7736132</ele>
        <time>2019-01-10T14:59:00Z</time>
      </trkpt>
      <trkpt lat="44.38241" lon="1.45666">
        <ele>176.5733544</ele>
        <time>2019-01-10T14:59:10Z</time>
      </trkpt>
      <trkpt lat="44.38235" lon="1.45672">
        <ele>176.4731412</ele>
        <time>2019-01-10T14:59:18Z</time>
      </trkpt>
      <trkpt lat="44.38228" lon="1.45676">
        <ele>176.37298</ele>
        <time>2019-01-10T14:59:25Z</time>
      </trkpt>
      <trkpt lat="44.3822" lon="1.4568">
        <ele>175.2727964</ele>
        <time>2019-01-10T14:59:33Z</time>
      </trkpt>
      <trkpt lat="44.38212" lon="1.45684">
        <ele>170.4726288</ele>
        <time>2019-01-10T14:59:41Z</time>
      </trkpt>
      <trkpt lat="44.38204" lon="1.45691">
        <ele>168.0723756</ele>
        <time>2019-01-10T14:59:51Z</time>
      </trkpt>
      <trkpt lat="44.38198" lon="1.45694">
        <ele>167.8722244</ele>
        <time>2019-01-10T14:59:57Z</time>
      </trkpt>
      <trkpt lat="44.3819" lon="1.45698">
        <ele>168.6720692</ele>
        <time>2019-01-10T15:00:03Z</time>
      </trkpt>
      <trkpt lat="44.38182" lon="1.45701">
        <ele>170.3719604</ele>
        <time>2019-01-10T15:00:11Z</time>
      </trkpt>
      <trkpt lat="44.38175" lon="1.45706">
        <ele>169.5717584</ele>
        <time>2019-01-10T15:00:17Z</time>
      </trkpt>
      <trkpt lat="44.38166" lon="1.4571">
        <ele>171.0716068</ele>
        <time>2019-01-10T15:00:23Z</time>
      </trkpt>
      <trkpt lat="44.38159" lon="1.45714">
        <ele>171.4714452</ele>
        <time>2019-01-10T15:00:29Z</time>
      </trkpt>
      <trkpt lat="44.3815" lon="1.45714">
        <ele>173.6714248</ele>
        <time>2019-01-10T15:00:35Z</time>
      </trkpt>
      <trkpt lat="44.38143" lon="1.45714">
        <ele>176.1714472</ele>
        <time>2019-01-10T15:00:41Z</time>
      </trkpt>
      <trkpt lat="44.38134" lon="1.45713">
        <ele>171.0714932</ele>
        <time>2019-01-10T15:00:53Z</time>
      </trkpt>
      <trkpt lat="44.38127" lon="1.45712">
        <ele>172.4715028</ele>
        <time>2019-01-10T15:00:59Z</time>
      </trkpt>
      <trkpt lat="44.38119" lon="1.45713">
        <ele>173.8715012</ele>
        <time>2019-01-10T15:01:06Z</time>
      </trkpt>
      <trkpt lat="44.38111" lon="1.45715">
        <ele>175.0714104</ele>
        <time>2019-01-10T15:01:12Z</time>
      </trkpt>
      <trkpt lat="44.38103" lon="1.45716">
        <ele>175.8713728</ele>
        <time>2019-01-10T15:01:20Z</time>
      </trkpt>
      <trkpt lat="44.38094" lon="1.45713">
        <ele>176.8714928</ele>
        <time>2019-01-10T15:01:28Z</time>
      </trkpt>
      <trkpt lat="44.38086" lon="1.45713">
        <ele>178.5714828</ele>
        <time>2019-01-10T15:01:34Z</time>
      </trkpt>
      <trkpt lat="44.38078" lon="1.45712">
        <ele>180.6715356</ele>
        <time>2019-01-10T15:01:40Z</time>
      </trkpt>
      <trkpt lat="44.3807" lon="1.45712">
        <ele>182.371516</ele>
        <time>2019-01-10T15:01:46Z</time>
      </trkpt>
      <trkpt lat="44.38062" lon="1.45713">
        <ele>183.8714772</ele>
        <time>2019-01-10T15:01:54Z</time>
      </trkpt>
      <trkpt lat="44.38053" lon="1.45713">
        <ele>184.6714664</ele>
        <time>2019-01-10T15:02:01Z</time>
      </trkpt>
      <trkpt lat="44.38045" lon="1.45716">
        <ele>186.5713468</ele>
        <time>2019-01-10T15:02:11Z</time>
      </trkpt>
      <trkpt lat="44.38037" lon="1.45715">
        <ele>188.9714192</ele>
        <time>2019-01-10T15:02:18Z</time>
      </trkpt>
      <trkpt lat="44.38029" lon="1.45716">
        <ele>188.0713524</ele>
        <time>2019-01-10T15:02:24Z</time>
      </trkpt>
      <trkpt lat="44.3802" lon="1.45718">
        <ele>186.1712964</ele>
        <time>2019-01-10T15:02:31Z</time>
      </trkpt>
      <trkpt lat="44.38012" lon="1.45717">
        <ele>186.2713092</ele>
        <time>2019-01-10T15:02:45Z</time>
      </trkpt>
      <trkpt lat="44.38004" lon="1.45722">
        <ele>188.171114</ele>
        <time>2019-01-10T15:02:56Z</time>
      </trkpt>
      <trkpt lat="44.37996" lon="1.45726">
        <ele>190.4709788</ele>
        <time>2019-01-10T15:03:03Z</time>
      </trkpt>
      <trkpt lat="44.37989" lon="1.45731">
        <ele>195.47077</ele>
        <time>2019-01-10T15:03:11Z</time>
      </trkpt>
      <trkpt lat="44.37982" lon="1.45736">
        <ele>196.8705536</ele>
        <time>2019-01-10T15:03:21Z</time>
      </trkpt>
      <trkpt lat="44.37973" lon="1.45735">
        <ele>198.6705908</ele>
        <time>2019-01-10T15:03:28Z</time>
      </trkpt>
      <trkpt lat="44.37965" lon="1.45732">
        <ele>195.0707112</ele>
        <time>2019-01-10T15:03:34Z</time>
      </trkpt>
      <trkpt lat="44.37958" lon="1.45727">
        <ele>191.6709028</ele>
        <time>2019-01-10T15:03:39Z</time>
      </trkpt>
      <trkpt lat="44.3795" lon="1.45724">
        <ele>187.8710248</ele>
        <time>2019-01-10T15:03:47Z</time>
      </trkpt>
      <trkpt lat="44.37944" lon="1.45717">
        <ele>186.9713308</ele>
        <time>2019-01-10T15:03:54Z</time>
      </trkpt>
      <trkpt lat="44.37937" lon="1.45712">
        <ele>187.8715312</ele>
        <time>2019-01-10T15:04:00Z</time>
      </trkpt>
      <trkpt lat="44.37929" lon="1.45707">
        <ele>188.5717276</ele>
        <time>2019-01-10T15:04:06Z</time>
      </trkpt>
      <trkpt lat="44.37922" lon="1.457">
        <ele>195.2719888</ele>
        <time>2019-01-10T15:04:37Z</time>
      </trkpt>
      <trkpt lat="44.37913" lon="1.45703">
        <ele>193.37189</ele>
        <time>2019-01-10T15:04:47Z</time>
      </trkpt>
      <trkpt lat="44.37906" lon="1.45705">
        <ele>195.5717924</ele>
        <time>2019-01-10T15:04:55Z</time>
      </trkpt>
      <trkpt lat="44.37899" lon="1.45708">
        <ele>196.5716944</ele>
        <time>2019-01-10T15:05:01Z</time>
      </trkpt>
      <trkpt lat="44.37892" lon="1.45712">
        <ele>198.2715336</ele>
        <time>2019-01-10T15:05:07Z</time>
      </trkpt>
      <trkpt lat="44.37888" lon="1.45723">
        <ele>196.5710956</ele>
        <time>2019-01-10T15:05:51Z</time>
      </trkpt>
      <trkpt lat="44.3788" lon="1.45726">
        <ele>194.9709688</ele>
        <time>2019-01-10T15:07:18Z</time>
      </trkpt>
      <trkpt lat="44.37873" lon="1.45732">
        <ele>191.6707404</ele>
        <time>2019-01-10T15:07:26Z</time>
      </trkpt>
      <trkpt lat="44.37865" lon="1.45737">
        <ele>192.3705232</ele>
        <time>2019-01-10T15:07:34Z</time>
      </trkpt>
      <trkpt lat="44.37859" lon="1.45745">
        <ele>196.670214</ele>
        <time>2019-01-10T15:07:42Z</time>
      </trkpt>
      <trkpt lat="44.37851" lon="1.45751">
        <ele>195.9699448</ele>
        <time>2019-01-10T15:07:47Z</time>
      </trkpt>
      <trkpt lat="44.37845" lon="1.4576">
        <ele>199.7696072</ele>
        <time>2019-01-10T15:07:54Z</time>
      </trkpt>
      <trkpt lat="44.37839" lon="1.45767">
        <ele>202.9693316</ele>
        <time>2019-01-10T15:08:03Z</time>
      </trkpt>
      <trkpt lat="44.37832" lon="1.45773">
        <ele>202.9690868</ele>
        <time>2019-01-10T15:08:12Z</time>
      </trkpt>
      <trkpt lat="44.37827" lon="1.45779">
        <ele>201.8688516</ele>
        <time>2019-01-10T15:08:18Z</time>
      </trkpt>
      <trkpt lat="44.3782" lon="1.45786">
        <ele>200.7685532</ele>
        <time>2019-01-10T15:08:26Z</time>
      </trkpt>
      <trkpt lat="44.37813" lon="1.4579">
        <ele>198.0684024</ele>
        <time>2019-01-10T15:08:31Z</time>
      </trkpt>
      <trkpt lat="44.37807" lon="1.45793">
        <ele>197.8682692</ele>
        <time>2019-01-10T15:08:36Z</time>
      </trkpt>
      <trkpt lat="44.378" lon="1.45798">
        <ele>198.8680648</ele>
        <time>2019-01-10T15:08:42Z</time>
      </trkpt>
      <trkpt lat="44.37794" lon="1.45805">
        <ele>198.467784</ele>
        <time>2019-01-10T15:08:51Z</time>
      </trkpt>
      <trkpt lat="44.37788" lon="1.45813">
        <ele>197.0675016</ele>
        <time>2019-01-10T15:08:58Z</time>
      </trkpt>
      <trkpt lat="44.37781" lon="1.4582">
        <ele>196.967206</ele>
        <time>2019-01-10T15:09:04Z</time>
      </trkpt>
      <trkpt lat="44.37775" lon="1.45824">
        <ele>196.9670236</ele>
        <time>2019-01-10T15:09:12Z</time>
      </trkpt>
      <trkpt lat="44.37769" lon="1.45828">
        <ele>197.666878</ele>
        <time>2019-01-10T15:09:19Z</time>
      </trkpt>
      <trkpt lat="44.37762" lon="1.45835">
        <ele>196.3666016</ele>
        <time>2019-01-10T15:09:24Z</time>
      </trkpt>
      <trkpt lat="44.37756" lon="1.4584">
        <ele>194.4663888</ele>
        <time>2019-01-10T15:09:31Z</time>
      </trkpt>
      <trkpt lat="44.37748" lon="1.45845">
        <ele>193.866188</ele>
        <time>2019-01-10T15:09:39Z</time>
      </trkpt>
      <trkpt lat="44.37743" lon="1.4585">
        <ele>193.4659836</ele>
        <time>2019-01-10T15:09:44Z</time>
      </trkpt>
      <trkpt lat="44.37739" lon="1.45858">
        <ele>191.5656948</ele>
        <time>2019-01-10T15:09:48Z</time>
      </trkpt>
      <trkpt lat="44.37731" lon="1.45863">
        <ele>193.665472</ele>
        <time>2019-01-10T15:09:54Z</time>
      </trkpt>
      <trkpt lat="44.37725" lon="1.45872">
        <ele>194.0651316</ele>
        <time>2019-01-10T15:10:02Z</time>
      </trkpt>
      <trkpt lat="44.37719" lon="1.45878">
        <ele>195.3648656</ele>
        <time>2019-01-10T15:10:09Z</time>
      </trkpt>
      <trkpt lat="44.37711" lon="1.45884">
        <ele>197.164642</ele>
        <time>2019-01-10T15:10:16Z</time>
      </trkpt>
      <trkpt lat="44.37705" lon="1.45892">
        <ele>200.2643312</ele>
        <time>2019-01-10T15:10:23Z</time>
      </trkpt>
      <trkpt lat="44.37698" lon="1.45898">
        <ele>201.0640924</ele>
        <time>2019-01-10T15:10:30Z</time>
      </trkpt>
      <trkpt lat="44.3769" lon="1.459">
        <ele>199.8640084</ele>
        <time>2019-01-10T15:10:35Z</time>
      </trkpt>
      <trkpt lat="44.37682" lon="1.45899">
        <ele>195.6640468</ele>
        <time>2019-01-10T15:10:40Z</time>
      </trkpt>
      <trkpt lat="44.37675" lon="1.45905">
        <ele>196.5637884</ele>
        <time>2019-01-10T15:10:47Z</time>
      </trkpt>
      <trkpt lat="44.37669" lon="1.45914">
        <ele>197.2634592</ele>
        <time>2019-01-10T15:10:54Z</time>
      </trkpt>
      <trkpt lat="44.37665" lon="1.4592">
        <ele>197.4632096</ele>
        <time>2019-01-10T15:10:59Z</time>
      </trkpt>
      <trkpt lat="44.37657" lon="1.45926">
        <ele>199.6629444</ele>
        <time>2019-01-10T15:11:06Z</time>
      </trkpt>
      <trkpt lat="44.37652" lon="1.4593">
        <ele>199.0628108</ele>
        <time>2019-01-10T15:11:10Z</time>
      </trkpt>
      <trkpt lat="44.37644" lon="1.45931">
        <ele>196.0627468</ele>
        <time>2019-01-10T15:11:14Z</time>
      </trkpt>
      <trkpt lat="44.37637" lon="1.45938">
        <ele>193.0624708</ele>
        <time>2019-01-10T15:11:21Z</time>
      </trkpt>
      <trkpt lat="44.37633" lon="1.45948">
        <ele>184.6620772</ele>
        <time>2019-01-10T15:11:34Z</time>
      </trkpt>
      <trkpt lat="44.37626" lon="1.45955">
        <ele>185.8618204</ele>
        <time>2019-01-10T15:11:41Z</time>
      </trkpt>
      <trkpt lat="44.3762" lon="1.45961">
        <ele>187.3615624</ele>
        <time>2019-01-10T15:11:47Z</time>
      </trkpt>
      <trkpt lat="44.37611" lon="1.4597">
        <ele>189.6611988</ele>
        <time>2019-01-10T15:11:52Z</time>
      </trkpt>
      <trkpt lat="44.37603" lon="1.45976">
        <ele>190.6609528</ele>
        <time>2019-01-10T15:11:57Z</time>
      </trkpt>
      <trkpt lat="44.37595" lon="1.45982">
        <ele>193.0607352</ele>
        <time>2019-01-10T15:12:02Z</time>
      </trkpt>
      <trkpt lat="44.37588" lon="1.45987">
        <ele>195.360518</ele>
        <time>2019-01-10T15:12:08Z</time>
      </trkpt>
      <trkpt lat="44.37581" lon="1.45993">
        <ele>198.2602964</ele>
        <time>2019-01-10T15:12:13Z</time>
      </trkpt>
      <trkpt lat="44.37575" lon="1.45997">
        <ele>201.2601348</ele>
        <time>2019-01-10T15:12:18Z</time>
      </trkpt>
      <trkpt lat="44.37567" lon="1.46003">
        <ele>203.1599016</ele>
        <time>2019-01-10T15:12:24Z</time>
      </trkpt>
      <trkpt lat="44.37559" lon="1.46012">
        <ele>205.2595132</ele>
        <time>2019-01-10T15:12:29Z</time>
      </trkpt>
      <trkpt lat="44.37553" lon="1.4602">
        <ele>207.3591968</ele>
        <time>2019-01-10T15:12:36Z</time>
      </trkpt>
      <trkpt lat="44.37547" lon="1.46029">
        <ele>209.1588484</ele>
        <time>2019-01-10T15:12:42Z</time>
      </trkpt>
      <trkpt lat="44.3754" lon="1.46035">
        <ele>212.6585876</ele>
        <time>2019-01-10T15:12:50Z</time>
      </trkpt>
      <trkpt lat="44.37531" lon="1.46035">
        <ele>214.2585972</ele>
        <time>2019-01-10T15:12:59Z</time>
      </trkpt>
      <trkpt lat="44.37529" lon="1.46023">
        <ele>207.6590868</ele>
        <time>2019-01-10T15:13:09Z</time>
      </trkpt>
      <trkpt lat="44.37526" lon="1.46012">
        <ele>200.2595308</ele>
        <time>2019-01-10T15:13:26Z</time>
      </trkpt>
      <trkpt lat="44.37522" lon="1.46002">
        <ele>198.1599288</ele>
        <time>2019-01-10T15:13:34Z</time>
      </trkpt>
      <trkpt lat="44.37519" lon="1.4599">
        <ele>194.6603832</ele>
        <time>2019-01-10T15:13:44Z</time>
      </trkpt>
      <trkpt lat="44.37516" lon="1.4598">
        <ele>194.8607888</ele>
        <time>2019-01-10T15:13:52Z</time>
      </trkpt>
      <trkpt lat="44.37511" lon="1.4597">
        <ele>194.161192</ele>
        <time>2019-01-10T15:13:59Z</time>
      </trkpt>
      <trkpt lat="44.37506" lon="1.4596">
        <ele>194.0616128</ele>
        <time>2019-01-10T15:14:08Z</time>
      </trkpt>
      <trkpt lat="44.37501" lon="1.45952">
        <ele>193.3619252</ele>
        <time>2019-01-10T15:14:16Z</time>
      </trkpt>
      <trkpt lat="44.37497" lon="1.45942">
        <ele>192.662316</ele>
        <time>2019-01-10T15:14:26Z</time>
      </trkpt>
      <trkpt lat="44.37495" lon="1.4593">
        <ele>186.7628036</ele>
        <time>2019-01-10T15:14:42Z</time>
      </trkpt>
      <trkpt lat="44.37491" lon="1.4592">
        <ele>185.3632124</ele>
        <time>2019-01-10T15:14:51Z</time>
      </trkpt>
      <trkpt lat="44.37487" lon="1.45913">
        <ele>184.3634876</ele>
        <time>2019-01-10T15:14:57Z</time>
      </trkpt>
      <trkpt lat="44.37483" lon="1.45903">
        <ele>183.7638692</ele>
        <time>2019-01-10T15:15:03Z</time>
      </trkpt>
      <trkpt lat="44.3748" lon="1.45892">
        <ele>181.66433</ele>
        <time>2019-01-10T15:15:11Z</time>
      </trkpt>
      <trkpt lat="44.37478" lon="1.45881">
        <ele>180.4647556</ele>
        <time>2019-01-10T15:15:18Z</time>
      </trkpt>
      <trkpt lat="44.37474" lon="1.45873">
        <ele>178.6650908</ele>
        <time>2019-01-10T15:15:24Z</time>
      </trkpt>
      <trkpt lat="44.37471" lon="1.45866">
        <ele>176.8653772</ele>
        <time>2019-01-10T15:15:29Z</time>
      </trkpt>
      <trkpt lat="44.37468" lon="1.45856">
        <ele>175.6657712</ele>
        <time>2019-01-10T15:15:35Z</time>
      </trkpt>
      <trkpt lat="44.37464" lon="1.45846">
        <ele>178.2661788</ele>
        <time>2019-01-10T15:15:42Z</time>
      </trkpt>
      <trkpt lat="44.37463" lon="1.45835">
        <ele>180.3666152</ele>
        <time>2019-01-10T15:15:57Z</time>
      </trkpt>
      <trkpt lat="44.37469" lon="1.45826">
        <ele>176.8669444</ele>
        <time>2019-01-10T15:16:06Z</time>
      </trkpt>
      <trkpt lat="44.37477" lon="1.45828">
        <ele>175.566864</ele>
        <time>2019-01-10T15:16:12Z</time>
      </trkpt>
      <trkpt lat="44.37484" lon="1.45821">
        <ele>173.3671652</ele>
        <time>2019-01-10T15:16:26Z</time>
      </trkpt>
      <trkpt lat="44.37489" lon="1.45811">
        <ele>172.06757</ele>
        <time>2019-01-10T15:16:38Z</time>
      </trkpt>
      <trkpt lat="44.37495" lon="1.45803">
        <ele>169.6678652</ele>
        <time>2019-01-10T15:16:44Z</time>
      </trkpt>
      <trkpt lat="44.37502" lon="1.45796">
        <ele>168.3681576</ele>
        <time>2019-01-10T15:16:54Z</time>
      </trkpt>
      <trkpt lat="44.3751" lon="1.4579">
        <ele>166.7683984</ele>
        <time>2019-01-10T15:17:06Z</time>
      </trkpt>
      <trkpt lat="44.37516" lon="1.45781">
        <ele>164.368768</ele>
        <time>2019-01-10T15:17:17Z</time>
      </trkpt>
      <trkpt lat="44.37522" lon="1.45774">
        <ele>162.169058</ele>
        <time>2019-01-10T15:17:24Z</time>
      </trkpt>
      <trkpt lat="44.37527" lon="1.45764">
        <ele>160.4694536</ele>
        <time>2019-01-10T15:17:32Z</time>
      </trkpt>
      <trkpt lat="44.37526" lon="1.45753">
        <ele>156.3698732</ele>
        <time>2019-01-10T15:17:42Z</time>
      </trkpt>
      <trkpt lat="44.37522" lon="1.45744">
        <ele>154.0702556</ele>
        <time>2019-01-10T15:17:53Z</time>
      </trkpt>
      <trkpt lat="44.37519" lon="1.45733">
        <ele>151.7706956</ele>
        <time>2019-01-10T15:18:02Z</time>
      </trkpt>
      <trkpt lat="44.37517" lon="1.45721">
        <ele>149.4711504</ele>
        <time>2019-01-10T15:18:12Z</time>
      </trkpt>
      <trkpt lat="44.37512" lon="1.45711">
        <ele>148.5715436</ele>
        <time>2019-01-10T15:18:20Z</time>
      </trkpt>
      <trkpt lat="44.37506" lon="1.45706">
        <ele>146.5717616</ele>
        <time>2019-01-10T15:18:45Z</time>
      </trkpt>
      <trkpt lat="44.37499" lon="1.45709">
        <ele>149.3716412</ele>
        <time>2019-01-10T15:18:54Z</time>
      </trkpt>
      <trkpt lat="44.37491" lon="1.45711">
        <ele>151.171558</ele>
        <time>2019-01-10T15:19:03Z</time>
      </trkpt>
      <trkpt lat="44.37486" lon="1.45714">
        <ele>152.8714448</ele>
        <time>2019-01-10T15:19:09Z</time>
      </trkpt>
      <trkpt lat="44.37479" lon="1.45722">
        <ele>151.6711216</ele>
        <time>2019-01-10T15:19:15Z</time>
      </trkpt>
      <trkpt lat="44.37472" lon="1.45726">
        <ele>153.470944</ele>
        <time>2019-01-10T15:19:24Z</time>
      </trkpt>
      <trkpt lat="44.37463" lon="1.45729">
        <ele>155.6708608</ele>
        <time>2019-01-10T15:19:32Z</time>
      </trkpt>
      <trkpt lat="44.37455" lon="1.45731">
        <ele>156.0707576</ele>
        <time>2019-01-10T15:19:41Z</time>
      </trkpt>
      <trkpt lat="44.37448" lon="1.45737">
        <ele>155.8705292</ele>
        <time>2019-01-10T15:19:51Z</time>
      </trkpt>
      <trkpt lat="44.3744" lon="1.45742">
        <ele>154.2703208</ele>
        <time>2019-01-10T15:20:02Z</time>
      </trkpt>
      <trkpt lat="44.37432" lon="1.45747">
        <ele>152.670126</ele>
        <time>2019-01-10T15:20:09Z</time>
      </trkpt>
      <trkpt lat="44.37424" lon="1.4575">
        <ele>151.269984</ele>
        <time>2019-01-10T15:20:17Z</time>
      </trkpt>
      <trkpt lat="44.37418" lon="1.45754">
        <ele>150.6698268</ele>
        <time>2019-01-10T15:20:22Z</time>
      </trkpt>
      <trkpt lat="44.37412" lon="1.45758">
        <ele>149.9696788</ele>
        <time>2019-01-10T15:20:28Z</time>
      </trkpt>
      <trkpt lat="44.37405" lon="1.45762">
        <ele>148.9695172</ele>
        <time>2019-01-10T15:20:34Z</time>
      </trkpt>
      <trkpt lat="44.37397" lon="1.45767">
        <ele>148.3693244</ele>
        <time>2019-01-10T15:20:40Z</time>
      </trkpt>
      <trkpt lat="44.37389" lon="1.45773">
        <ele>147.769084</ele>
        <time>2019-01-10T15:20:47Z</time>
      </trkpt>
      <trkpt lat="44.37382" lon="1.45779">
        <ele>146.6688396</ele>
        <time>2019-01-10T15:20:53Z</time>
      </trkpt>
      <trkpt lat="44.37375" lon="1.45783">
        <ele>145.7686836</ele>
        <time>2019-01-10T15:20:59Z</time>
      </trkpt>
      <trkpt lat="44.37367" lon="1.45788">
        <ele>146.0684708</ele>
        <time>2019-01-10T15:21:06Z</time>
      </trkpt>
      <trkpt lat="44.37361" lon="1.45796">
        <ele>147.468176</ele>
        <time>2019-01-10T15:21:12Z</time>
      </trkpt>
      <trkpt lat="44.37355" lon="1.45805">
        <ele>147.0678204</ele>
        <time>2019-01-10T15:21:21Z</time>
      </trkpt>
      <trkpt lat="44.37349" lon="1.45813">
        <ele>146.767478</ele>
        <time>2019-01-10T15:21:29Z</time>
      </trkpt>
      <trkpt lat="44.37345" lon="1.45823">
        <ele>145.067086</ele>
        <time>2019-01-10T15:21:36Z</time>
      </trkpt>
      <trkpt lat="44.3734" lon="1.45831">
        <ele>143.1667532</ele>
        <time>2019-01-10T15:21:47Z</time>
      </trkpt>
      <trkpt lat="44.37333" lon="1.45839">
        <ele>144.2664548</ele>
        <time>2019-01-10T15:21:56Z</time>
      </trkpt>
      <trkpt lat="44.37326" lon="1.45843">
        <ele>143.2662684</ele>
        <time>2019-01-10T15:22:04Z</time>
      </trkpt>
      <trkpt lat="44.37319" lon="1.4585">
        <ele>143.1660028</ele>
        <time>2019-01-10T15:22:11Z</time>
      </trkpt>
      <trkpt lat="44.37313" lon="1.45856">
        <ele>143.36576</ele>
        <time>2019-01-10T15:22:17Z</time>
      </trkpt>
      <trkpt lat="44.37307" lon="1.45862">
        <ele>145.565508</ele>
        <time>2019-01-10T15:22:22Z</time>
      </trkpt>
      <trkpt lat="44.37298" lon="1.45867">
        <ele>150.865316</ele>
        <time>2019-01-10T15:22:27Z</time>
      </trkpt>
      <trkpt lat="44.37292" lon="1.4587">
        <ele>153.8652196</ele>
        <time>2019-01-10T15:22:30Z</time>
      </trkpt>
      <trkpt lat="44.37284" lon="1.4587">
        <ele>153.7651832</ele>
        <time>2019-01-10T15:22:36Z</time>
      </trkpt>
      <trkpt lat="44.37275" lon="1.45868">
        <ele>152.8652652</ele>
        <time>2019-01-10T15:22:43Z</time>
      </trkpt>
      <trkpt lat="44.37268" lon="1.45867">
        <ele>153.1653388</ele>
        <time>2019-01-10T15:22:50Z</time>
      </trkpt>
      <trkpt lat="44.3726" lon="1.45866">
        <ele>152.865364</ele>
        <time>2019-01-10T15:22:57Z</time>
      </trkpt>
      <trkpt lat="44.37252" lon="1.45864">
        <ele>150.9654556</ele>
        <time>2019-01-10T15:23:04Z</time>
      </trkpt>
      <trkpt lat="44.37244" lon="1.45859">
        <ele>154.1656492</ele>
        <time>2019-01-10T15:23:13Z</time>
      </trkpt>
      <trkpt lat="44.37239" lon="1.45851">
        <ele>156.165958</ele>
        <time>2019-01-10T15:23:54Z</time>
      </trkpt>
      <trkpt lat="44.37235" lon="1.45844">
        <ele>155.96624</ele>
        <time>2019-01-10T15:24:54Z</time>
      </trkpt>
      <trkpt lat="44.37231" lon="1.45836">
        <ele>155.6665768</ele>
        <time>2019-01-10T15:25:06Z</time>
      </trkpt>
      <trkpt lat="44.37225" lon="1.4583">
        <ele>142.8668208</ele>
        <time>2019-01-10T15:25:11Z</time>
      </trkpt>
      <trkpt lat="44.37219" lon="1.45822">
        <ele>129.1671176</ele>
        <time>2019-01-10T15:25:18Z</time>
      </trkpt>
      <trkpt lat="44.37214" lon="1.45813">
        <ele>104.9674824</ele>
        <time>2019-01-10T15:25:32Z</time>
      </trkpt>
      <trkpt lat="44.37214" lon="1.45801">
        <ele>84.5679456</ele>
        <time>2019-01-10T15:25:45Z</time>
      </trkpt>
      <trkpt lat="44.37209" lon="1.45791">
        <ele>66.9683784</ele>
        <time>2019-01-10T15:25:53Z</time>
      </trkpt>
      <trkpt lat="44.37215" lon="1.45783">
        <ele>62.1686808</ele>
        <time>2019-01-10T15:26:00Z</time>
      </trkpt>
      <trkpt lat="44.37223" lon="1.45778">
        <ele>63.1688816</ele>
        <time>2019-01-10T15:26:06Z</time>
      </trkpt>
      <trkpt lat="44.3723" lon="1.45774">
        <ele>63.2690376</ele>
        <time>2019-01-10T15:26:11Z</time>
      </trkpt>
      <trkpt lat="44.37236" lon="1.45772">
        <ele>64.7691328</ele>
        <time>2019-01-10T15:26:15Z</time>
      </trkpt>
      <trkpt lat="44.37244" lon="1.45768">
        <ele>73.2693</ele>
        <time>2019-01-10T15:26:21Z</time>
      </trkpt>
      <trkpt lat="44.37255" lon="1.45767">
        <ele>95.5693232</ele>
        <time>2019-01-10T15:26:26Z</time>
      </trkpt>
      <trkpt lat="44.37268" lon="1.45766">
        <ele>110.6693772</ele>
        <time>2019-01-10T15:26:31Z</time>
      </trkpt>
      <trkpt lat="44.37277" lon="1.45763">
        <ele>123.0694628</ele>
        <time>2019-01-10T15:26:35Z</time>
      </trkpt>
      <trkpt lat="44.37285" lon="1.4576">
        <ele>132.7696028</ele>
        <time>2019-01-10T15:26:39Z</time>
      </trkpt>
      <trkpt lat="44.37291" lon="1.45754">
        <ele>138.569838</ele>
        <time>2019-01-10T15:26:44Z</time>
      </trkpt>
      <trkpt lat="44.37297" lon="1.45746">
        <ele>144.370168</ele>
        <time>2019-01-10T15:26:51Z</time>
      </trkpt>
      <trkpt lat="44.37302" lon="1.45739">
        <ele>148.470456</ele>
        <time>2019-01-10T15:26:57Z</time>
      </trkpt>
      <trkpt lat="44.37309" lon="1.45731">
        <ele>153.1707668</ele>
        <time>2019-01-10T15:27:06Z</time>
      </trkpt>
      <trkpt lat="44.37313" lon="1.45721">
        <ele>154.7711808</ele>
        <time>2019-01-10T15:27:15Z</time>
      </trkpt>
      <trkpt lat="44.37316" lon="1.45712">
        <ele>157.6715084</ele>
        <time>2019-01-10T15:27:21Z</time>
      </trkpt>
      <trkpt lat="44.3732" lon="1.45707">
        <ele>159.1717092</ele>
        <time>2019-01-10T15:27:25Z</time>
      </trkpt>
      <trkpt lat="44.37325" lon="1.457">
        <ele>161.2720144</ele>
        <time>2019-01-10T15:27:31Z</time>
      </trkpt>
      <trkpt lat="44.3733" lon="1.45691">
        <ele>164.5723752</ele>
        <time>2019-01-10T15:27:38Z</time>
      </trkpt>
      <trkpt lat="44.37331" lon="1.45679">
        <ele>164.772828</ele>
        <time>2019-01-10T15:27:46Z</time>
      </trkpt>
      <trkpt lat="44.37335" lon="1.45668">
        <ele>162.4732784</ele>
        <time>2019-01-10T15:27:53Z</time>
      </trkpt>
      <trkpt lat="44.3734" lon="1.45659">
        <ele>159.0736464</ele>
        <time>2019-01-10T15:27:59Z</time>
      </trkpt>
      <trkpt lat="44.37346" lon="1.45651">
        <ele>154.2739628</ele>
        <time>2019-01-10T15:28:13Z</time>
      </trkpt>
      <trkpt lat="44.37352" lon="1.45642">
        <ele>151.874338</ele>
        <time>2019-01-10T15:28:26Z</time>
      </trkpt>
      <trkpt lat="44.37358" lon="1.45636">
        <ele>152.174544</ele>
        <time>2019-01-10T15:28:33Z</time>
      </trkpt>
      <trkpt lat="44.37366" lon="1.45632">
        <ele>148.3747052</ele>
        <time>2019-01-10T15:28:41Z</time>
      </trkpt>
      <trkpt lat="44.37374" lon="1.45629">
        <ele>151.1748284</ele>
        <time>2019-01-10T15:28:49Z</time>
      </trkpt>
      <trkpt lat="44.3738" lon="1.45628">
        <ele>155.2748684</ele>
        <time>2019-01-10T15:28:54Z</time>
      </trkpt>
      <trkpt lat="44.3739" lon="1.45626">
        <ele>154.474948</ele>
        <time>2019-01-10T15:28:59Z</time>
      </trkpt>
      <trkpt lat="44.37397" lon="1.45625">
        <ele>152.575012</ele>
        <time>2019-01-10T15:29:05Z</time>
      </trkpt>
      <trkpt lat="44.37406" lon="1.45622">
        <ele>153.275128</ele>
        <time>2019-01-10T15:29:12Z</time>
      </trkpt>
      <trkpt lat="44.37414" lon="1.45617">
        <ele>154.0753132</ele>
        <time>2019-01-10T15:29:20Z</time>
      </trkpt>
      <trkpt lat="44.37421" lon="1.45612">
        <ele>150.7755124</ele>
        <time>2019-01-10T15:29:29Z</time>
      </trkpt>
      <trkpt lat="44.3743" lon="1.45608">
        <ele>148.075692</ele>
        <time>2019-01-10T15:29:39Z</time>
      </trkpt>
      <trkpt lat="44.37437" lon="1.45601">
        <ele>146.7759556</ele>
        <time>2019-01-10T15:29:45Z</time>
      </trkpt>
      <trkpt lat="44.37446" lon="1.45599">
        <ele>146.0760464</ele>
        <time>2019-01-10T15:29:53Z</time>
      </trkpt>
      <trkpt lat="44.37453" lon="1.45596">
        <ele>145.2761584</ele>
        <time>2019-01-10T15:30:00Z</time>
      </trkpt>
      <trkpt lat="44.37461" lon="1.4559">
        <ele>140.6764044</ele>
        <time>2019-01-10T15:30:08Z</time>
      </trkpt>
      <trkpt lat="44.37468" lon="1.45583">
        <ele>139.376684</ele>
        <time>2019-01-10T15:30:17Z</time>
      </trkpt>
      <trkpt lat="44.37475" lon="1.45575">
        <ele>137.0769924</ele>
        <time>2019-01-10T15:30:26Z</time>
      </trkpt>
      <trkpt lat="44.3748" lon="1.45565">
        <ele>137.477388</ele>
        <time>2019-01-10T15:30:33Z</time>
      </trkpt>
      <trkpt lat="44.37485" lon="1.45556">
        <ele>137.3777804</ele>
        <time>2019-01-10T15:30:42Z</time>
      </trkpt>
      <trkpt lat="44.37488" lon="1.45544">
        <ele>137.378238</ele>
        <time>2019-01-10T15:30:51Z</time>
      </trkpt>
      <trkpt lat="44.37491" lon="1.45535">
        <ele>136.3786012</ele>
        <time>2019-01-10T15:30:59Z</time>
      </trkpt>
      <trkpt lat="44.37492" lon="1.45523">
        <ele>134.17909</ele>
        <time>2019-01-10T15:31:09Z</time>
      </trkpt>
      <trkpt lat="44.37493" lon="1.45514">
        <ele>131.6794432</ele>
        <time>2019-01-10T15:31:15Z</time>
      </trkpt>
      <trkpt lat="44.37498" lon="1.45505">
        <ele>130.7798028</ele>
        <time>2019-01-10T15:31:25Z</time>
      </trkpt>
      <trkpt lat="44.37503" lon="1.45496">
        <ele>136.0801664</ele>
        <time>2019-01-10T15:31:36Z</time>
      </trkpt>
      <trkpt lat="44.37511" lon="1.45489">
        <ele>140.4804224</ele>
        <time>2019-01-10T15:31:52Z</time>
      </trkpt>
      <trkpt lat="44.37519" lon="1.45493">
        <ele>140.6802736</ele>
        <time>2019-01-10T15:32:02Z</time>
      </trkpt>
      <trkpt lat="44.37527" lon="1.45499">
        <ele>141.3800384</ele>
        <time>2019-01-10T15:32:10Z</time>
      </trkpt>
      <trkpt lat="44.37532" lon="1.45506">
        <ele>139.6797644</ele>
        <time>2019-01-10T15:32:18Z</time>
      </trkpt>
      <trkpt lat="44.37539" lon="1.45513">
        <ele>138.579468</ele>
        <time>2019-01-10T15:32:27Z</time>
      </trkpt>
      <trkpt lat="44.37546" lon="1.45521">
        <ele>138.1791704</ele>
        <time>2019-01-10T15:32:35Z</time>
      </trkpt>
      <trkpt lat="44.37553" lon="1.45526">
        <ele>135.7789464</ele>
        <time>2019-01-10T15:32:42Z</time>
      </trkpt>
      <trkpt lat="44.37561" lon="1.4553">
        <ele>129.7787876</ele>
        <time>2019-01-10T15:32:51Z</time>
      </trkpt>
      <trkpt lat="44.37569" lon="1.45534">
        <ele>127.778628</ele>
        <time>2019-01-10T15:32:59Z</time>
      </trkpt>
      <trkpt lat="44.37577" lon="1.45533">
        <ele>123.6786788</ele>
        <time>2019-01-10T15:33:06Z</time>
      </trkpt>
      <trkpt lat="44.37585" lon="1.45533">
        <ele>125.8786996</ele>
        <time>2019-01-10T15:33:12Z</time>
      </trkpt>
      <trkpt lat="44.37593" lon="1.45533">
        <ele>129.0786756</ele>
        <time>2019-01-10T15:33:16Z</time>
      </trkpt>
      <trkpt lat="44.376" lon="1.45537">
        <ele>137.478534</ele>
        <time>2019-01-10T15:33:21Z</time>
      </trkpt>
      <trkpt lat="44.37609" lon="1.45539">
        <ele>137.2784236</ele>
        <time>2019-01-10T15:33:27Z</time>
      </trkpt>
      <trkpt lat="44.37616" lon="1.45541">
        <ele>133.6783732</ele>
        <time>2019-01-10T15:33:36Z</time>
      </trkpt>
      <trkpt lat="44.37623" lon="1.45543">
        <ele>134.5782748</ele>
        <time>2019-01-10T15:33:42Z</time>
      </trkpt>
      <trkpt lat="44.37631" lon="1.45537">
        <ele>136.4785104</ele>
        <time>2019-01-10T15:33:50Z</time>
      </trkpt>
      <trkpt lat="44.37633" lon="1.45527">
        <ele>136.578916</ele>
        <time>2019-01-10T15:33:57Z</time>
      </trkpt>
      <trkpt lat="44.37637" lon="1.45518">
        <ele>138.1792904</ele>
        <time>2019-01-10T15:34:03Z</time>
      </trkpt>
      <trkpt lat="44.37639" lon="1.45508">
        <ele>139.67967</ele>
        <time>2019-01-10T15:34:09Z</time>
      </trkpt>
      <trkpt lat="44.37638" lon="1.45497">
        <ele>140.180128</ele>
        <time>2019-01-10T15:34:18Z</time>
      </trkpt>
      <trkpt lat="44.37634" lon="1.45487">
        <ele>137.2805292</ele>
        <time>2019-01-10T15:34:39Z</time>
      </trkpt>
      <trkpt lat="44.37636" lon="1.45476">
        <ele>132.2809672</ele>
        <time>2019-01-10T15:34:48Z</time>
      </trkpt>
      <trkpt lat="44.37639" lon="1.45464">
        <ele>133.48143</ele>
        <time>2019-01-10T15:34:57Z</time>
      </trkpt>
      <trkpt lat="44.37643" lon="1.45455">
        <ele>133.2818212</ele>
        <time>2019-01-10T15:35:05Z</time>
      </trkpt>
      <trkpt lat="44.37649" lon="1.45446">
        <ele>135.4821648</ele>
        <time>2019-01-10T15:35:12Z</time>
      </trkpt>
      <trkpt lat="44.37655" lon="1.45438">
        <ele>136.7824888</ele>
        <time>2019-01-10T15:35:18Z</time>
      </trkpt>
      <trkpt lat="44.3766" lon="1.45427">
        <ele>138.7829044</ele>
        <time>2019-01-10T15:35:28Z</time>
      </trkpt>
      <trkpt lat="44.37663" lon="1.45417">
        <ele>140.4833068</ele>
        <time>2019-01-10T15:35:42Z</time>
      </trkpt>
      <trkpt lat="44.3767" lon="1.45411">
        <ele>144.1835612</ele>
        <time>2019-01-10T15:35:54Z</time>
      </trkpt>
      <trkpt lat="44.37677" lon="1.45404">
        <ele>140.2838376</ele>
        <time>2019-01-10T15:36:24Z</time>
      </trkpt>
      <trkpt lat="44.37686" lon="1.45402">
        <ele>140.7839156</ele>
        <time>2019-01-10T15:36:45Z</time>
      </trkpt>
      <trkpt lat="44.37694" lon="1.45405">
        <ele>136.7838176</ele>
        <time>2019-01-10T15:36:54Z</time>
      </trkpt>
      <trkpt lat="44.37702" lon="1.45411">
        <ele>138.2835672</ele>
        <time>2019-01-10T15:37:18Z</time>
      </trkpt>
      <trkpt lat="44.3771" lon="1.45413">
        <ele>145.5834944</ele>
        <time>2019-01-10T15:37:30Z</time>
      </trkpt>
      <trkpt lat="44.37717" lon="1.45406">
        <ele>145.7837716</ele>
        <time>2019-01-10T15:37:39Z</time>
      </trkpt>
      <trkpt lat="44.37724" lon="1.454">
        <ele>144.7839884</ele>
        <time>2019-01-10T15:37:50Z</time>
      </trkpt>
      <trkpt lat="44.37731" lon="1.45396">
        <ele>148.184176</ele>
        <time>2019-01-10T15:37:59Z</time>
      </trkpt>
      <trkpt lat="44.37738" lon="1.45394">
        <ele>152.284258</ele>
        <time>2019-01-10T15:38:06Z</time>
      </trkpt>
      <trkpt lat="44.37745" lon="1.45388">
        <ele>152.784462</ele>
        <time>2019-01-10T15:38:15Z</time>
      </trkpt>
      <trkpt lat="44.37752" lon="1.45383">
        <ele>155.084666</ele>
        <time>2019-01-10T15:38:24Z</time>
      </trkpt>
      <trkpt lat="44.37759" lon="1.45379">
        <ele>157.2848236</ele>
        <time>2019-01-10T15:38:33Z</time>
      </trkpt>
      <trkpt lat="44.37767" lon="1.45377">
        <ele>157.6849408</ele>
        <time>2019-01-10T15:38:42Z</time>
      </trkpt>
      <trkpt lat="44.37775" lon="1.45372">
        <ele>156.885116</ele>
        <time>2019-01-10T15:38:54Z</time>
      </trkpt>
      <trkpt lat="44.37783" lon="1.45365">
        <ele>156.385404</ele>
        <time>2019-01-10T15:39:04Z</time>
      </trkpt>
      <trkpt lat="44.37789" lon="1.45357">
        <ele>161.4857152</ele>
        <time>2019-01-10T15:39:14Z</time>
      </trkpt>
      <trkpt lat="44.37795" lon="1.45349">
        <ele>164.9860424</ele>
        <time>2019-01-10T15:39:24Z</time>
      </trkpt>
      <trkpt lat="44.378" lon="1.4534">
        <ele>167.186392</ele>
        <time>2019-01-10T15:39:36Z</time>
      </trkpt>
      <trkpt lat="44.37806" lon="1.45333">
        <ele>167.7866772</ele>
        <time>2019-01-10T15:39:45Z</time>
      </trkpt>
      <trkpt lat="44.3781" lon="1.45323">
        <ele>168.1870944</ele>
        <time>2019-01-10T15:39:56Z</time>
      </trkpt>
      <trkpt lat="44.37811" lon="1.4531">
        <ele>166.1875912</ele>
        <time>2019-01-10T15:40:06Z</time>
      </trkpt>
      <trkpt lat="44.37808" lon="1.45303">
        <ele>165.587896</ele>
        <time>2019-01-10T15:40:27Z</time>
      </trkpt>
      <trkpt lat="44.37806" lon="1.45291">
        <ele>168.188374</ele>
        <time>2019-01-10T15:40:56Z</time>
      </trkpt>
      <trkpt lat="44.37809" lon="1.4528">
        <ele>170.4887888</ele>
        <time>2019-01-10T15:41:06Z</time>
      </trkpt>
      <trkpt lat="44.37808" lon="1.45268">
        <ele>171.889272</ele>
        <time>2019-01-10T15:41:18Z</time>
      </trkpt>
      <trkpt lat="44.37808" lon="1.45256">
        <ele>175.8897496</ele>
        <time>2019-01-10T15:41:29Z</time>
      </trkpt>
      <trkpt lat="44.37809" lon="1.4525">
        <ele>177.4899864</ele>
        <time>2019-01-10T15:41:42Z</time>
      </trkpt>
      <trkpt lat="44.37809" lon="1.45239">
        <ele>172.8904496</ele>
        <time>2019-01-10T15:41:48Z</time>
      </trkpt>
      <trkpt lat="44.37808" lon="1.45227">
        <ele>174.0909148</ele>
        <time>2019-01-10T15:41:59Z</time>
      </trkpt>
      <trkpt lat="44.37806" lon="1.45215">
        <ele>169.3913896</ele>
        <time>2019-01-10T15:42:06Z</time>
      </trkpt>
      <trkpt lat="44.37805" lon="1.45203">
        <ele>167.291882</ele>
        <time>2019-01-10T15:42:16Z</time>
      </trkpt>
      <trkpt lat="44.37805" lon="1.45193">
        <ele>168.592294</ele>
        <time>2019-01-10T15:42:26Z</time>
      </trkpt>
      <trkpt lat="44.37807" lon="1.45181">
        <ele>170.7927616</ele>
        <time>2019-01-10T15:42:34Z</time>
      </trkpt>
      <trkpt lat="44.37808" lon="1.45171">
        <ele>172.1931608</ele>
        <time>2019-01-10T15:42:42Z</time>
      </trkpt>
      <trkpt lat="44.37812" lon="1.45162">
        <ele>173.5935176</ele>
        <time>2019-01-10T15:42:48Z</time>
      </trkpt>
      <trkpt lat="44.37815" lon="1.45152">
        <ele>177.393938</ele>
        <time>2019-01-10T15:42:56Z</time>
      </trkpt>
      <trkpt lat="44.37819" lon="1.45143">
        <ele>179.6942652</ele>
        <time>2019-01-10T15:43:02Z</time>
      </trkpt>
      <trkpt lat="44.37825" lon="1.45134">
        <ele>181.3946356</ele>
        <time>2019-01-10T15:43:10Z</time>
      </trkpt>
      <trkpt lat="44.37828" lon="1.45125">
        <ele>182.795</ele>
        <time>2019-01-10T15:43:18Z</time>
      </trkpt>
      <trkpt lat="44.37831" lon="1.45114">
        <ele>187.0954268</ele>
        <time>2019-01-10T15:43:24Z</time>
      </trkpt>
      <trkpt lat="44.37834" lon="1.45103">
        <ele>186.595868</ele>
        <time>2019-01-10T15:43:29Z</time>
      </trkpt>
      <trkpt lat="44.37836" lon="1.45092">
        <ele>185.2963092</ele>
        <time>2019-01-10T15:43:35Z</time>
      </trkpt>
      <trkpt lat="44.3784" lon="1.45081">
        <ele>185.9967652</ele>
        <time>2019-01-10T15:43:43Z</time>
      </trkpt>
      <trkpt lat="44.37844" lon="1.4507">
        <ele>186.0972068</ele>
        <time>2019-01-10T15:43:54Z</time>
      </trkpt>
      <trkpt lat="44.37851" lon="1.45063">
        <ele>187.09748</ele>
        <time>2019-01-10T15:44:04Z</time>
      </trkpt>
      <trkpt lat="44.37856" lon="1.45053">
        <ele>183.8978984</ele>
        <time>2019-01-10T15:44:16Z</time>
      </trkpt>
      <trkpt lat="44.37864" lon="1.45047">
        <ele>186.5981172</ele>
        <time>2019-01-10T15:44:24Z</time>
      </trkpt>
      <trkpt lat="44.37871" lon="1.45043">
        <ele>188.7982768</ele>
        <time>2019-01-10T15:44:31Z</time>
      </trkpt>
      <trkpt lat="44.37878" lon="1.45038">
        <ele>188.9984748</ele>
        <time>2019-01-10T15:44:39Z</time>
      </trkpt>
      <trkpt lat="44.37885" lon="1.45035">
        <ele>188.0986132</ele>
        <time>2019-01-10T15:44:45Z</time>
      </trkpt>
      <trkpt lat="44.37891" lon="1.45029">
        <ele>186.8988248</ele>
        <time>2019-01-10T15:44:51Z</time>
      </trkpt>
      <trkpt lat="44.37897" lon="1.45024">
        <ele>183.999022</ele>
        <time>2019-01-10T15:44:57Z</time>
      </trkpt>
      <trkpt lat="44.37904" lon="1.45019">
        <ele>179.8992508</ele>
        <time>2019-01-10T15:45:03Z</time>
      </trkpt>
      <trkpt lat="44.3791" lon="1.45013">
        <ele>182.0994676</ele>
        <time>2019-01-10T15:45:09Z</time>
      </trkpt>
      <trkpt lat="44.37917" lon="1.45006">
        <ele>178.8997556</ele>
        <time>2019-01-10T15:45:17Z</time>
      </trkpt>
      <trkpt lat="44.37923" lon="1.44999">
        <ele>180.1000328</ele>
        <time>2019-01-10T15:45:24Z</time>
      </trkpt>
      <trkpt lat="44.37931" lon="1.44993">
        <ele>179.4002948</ele>
        <time>2019-01-10T15:45:31Z</time>
      </trkpt>
      <trkpt lat="44.37938" lon="1.44989">
        <ele>180.3004408</ele>
        <time>2019-01-10T15:45:37Z</time>
      </trkpt>
      <trkpt lat="44.37945" lon="1.44986">
        <ele>181.1005568</ele>
        <time>2019-01-10T15:45:42Z</time>
      </trkpt>
      <trkpt lat="44.37953" lon="1.4498">
        <ele>178.2007956</ele>
        <time>2019-01-10T15:45:48Z</time>
      </trkpt>
      <trkpt lat="44.3796" lon="1.44981">
        <ele>181.9007504</ele>
        <time>2019-01-10T15:45:54Z</time>
      </trkpt>
      <trkpt lat="44.37968" lon="1.44985">
        <ele>186.7006132</ele>
        <time>2019-01-10T15:45:59Z</time>
      </trkpt>
      <trkpt lat="44.37976" lon="1.44989">
        <ele>189.7004588</ele>
        <time>2019-01-10T15:46:06Z</time>
      </trkpt>
      <trkpt lat="44.37984" lon="1.44987">
        <ele>181.4005412</ele>
        <time>2019-01-10T15:46:21Z</time>
      </trkpt>
      <trkpt lat="44.3799" lon="1.44979">
        <ele>188.6008396</ele>
        <time>2019-01-10T15:46:30Z</time>
      </trkpt>
      <trkpt lat="44.37998" lon="1.44973">
        <ele>187.2010708</ele>
        <time>2019-01-10T15:46:42Z</time>
      </trkpt>
      <trkpt lat="44.38006" lon="1.44968">
        <ele>186.801296</ele>
        <time>2019-01-10T15:46:54Z</time>
      </trkpt>
      <trkpt lat="44.38012" lon="1.44963">
        <ele>185.7014676</ele>
        <time>2019-01-10T15:47:00Z</time>
      </trkpt>
      <trkpt lat="44.38019" lon="1.4496">
        <ele>190.2016056</ele>
        <time>2019-01-10T15:47:07Z</time>
      </trkpt>
      <trkpt lat="44.38028" lon="1.44956">
        <ele>194.6017524</ele>
        <time>2019-01-10T15:47:14Z</time>
      </trkpt>
      <trkpt lat="44.38034" lon="1.44951">
        <ele>195.701946</ele>
        <time>2019-01-10T15:47:21Z</time>
      </trkpt>
      <trkpt lat="44.38038" lon="1.44944">
        <ele>198.6022556</ele>
        <time>2019-01-10T15:47:27Z</time>
      </trkpt>
      <trkpt lat="44.3804" lon="1.44933">
        <ele>199.702688</ele>
        <time>2019-01-10T15:47:34Z</time>
      </trkpt>
      <trkpt lat="44.3804" lon="1.44922">
        <ele>201.9031336</ele>
        <time>2019-01-10T15:47:41Z</time>
      </trkpt>
      <trkpt lat="44.38037" lon="1.44911">
        <ele>202.503544</ele>
        <time>2019-01-10T15:47:46Z</time>
      </trkpt>
      <trkpt lat="44.38033" lon="1.44902">
        <ele>203.303902</ele>
        <time>2019-01-10T15:47:51Z</time>
      </trkpt>
      <trkpt lat="44.38027" lon="1.44895">
        <ele>204.9042056</ele>
        <time>2019-01-10T15:47:56Z</time>
      </trkpt>
      <trkpt lat="44.38029" lon="1.44883">
        <ele>208.4046624</ele>
        <time>2019-01-10T15:48:06Z</time>
      </trkpt>
      <trkpt lat="44.38035" lon="1.44877">
        <ele>213.004912</ele>
        <time>2019-01-10T15:48:22Z</time>
      </trkpt>
      <trkpt lat="44.38037" lon="1.44865">
        <ele>211.1054</ele>
        <time>2019-01-10T15:48:30Z</time>
      </trkpt>
      <trkpt lat="44.38036" lon="1.44853">
        <ele>203.3058944</ele>
        <time>2019-01-10T15:48:44Z</time>
      </trkpt>
      <trkpt lat="44.38034" lon="1.44843">
        <ele>200.8062988</ele>
        <time>2019-01-10T15:48:51Z</time>
      </trkpt>
      <trkpt lat="44.3803" lon="1.44834">
        <ele>199.2066412</ele>
        <time>2019-01-10T15:48:57Z</time>
      </trkpt>
      <trkpt lat="44.38026" lon="1.44824">
        <ele>199.8070296</ele>
        <time>2019-01-10T15:49:03Z</time>
      </trkpt>
      <trkpt lat="44.38022" lon="1.44814">
        <ele>197.6074364</ele>
        <time>2019-01-10T15:49:10Z</time>
      </trkpt>
      <trkpt lat="44.38017" lon="1.44804">
        <ele>196.5078536</ele>
        <time>2019-01-10T15:49:17Z</time>
      </trkpt>
      <trkpt lat="44.38015" lon="1.44793">
        <ele>195.6082676</ele>
        <time>2019-01-10T15:49:23Z</time>
      </trkpt>
      <trkpt lat="44.38013" lon="1.44782">
        <ele>196.408722</ele>
        <time>2019-01-10T15:49:29Z</time>
      </trkpt>
      <trkpt lat="44.3801" lon="1.44773">
        <ele>196.6090848</ele>
        <time>2019-01-10T15:49:34Z</time>
      </trkpt>
      <trkpt lat="44.38007" lon="1.44761">
        <ele>196.4095448</ele>
        <time>2019-01-10T15:49:42Z</time>
      </trkpt>
      <trkpt lat="44.38005" lon="1.44752">
        <ele>195.9099184</ele>
        <time>2019-01-10T15:49:48Z</time>
      </trkpt>
      <trkpt lat="44.38002" lon="1.44741">
        <ele>196.3103712</ele>
        <time>2019-01-10T15:49:56Z</time>
      </trkpt>
      <trkpt lat="44.37999" lon="1.44731">
        <ele>196.8107696</ele>
        <time>2019-01-10T15:50:02Z</time>
      </trkpt>
      <trkpt lat="44.37995" lon="1.4472">
        <ele>197.5111872</ele>
        <time>2019-01-10T15:50:11Z</time>
      </trkpt>
      <trkpt lat="44.37991" lon="1.4471">
        <ele>198.9115996</ele>
        <time>2019-01-10T15:50:20Z</time>
      </trkpt>
      <trkpt lat="44.37987" lon="1.447">
        <ele>199.0120212</ele>
        <time>2019-01-10T15:50:27Z</time>
      </trkpt>
      <trkpt lat="44.37982" lon="1.44689">
        <ele>198.41243</ele>
        <time>2019-01-10T15:50:35Z</time>
      </trkpt>
      <trkpt lat="44.37976" lon="1.44685">
        <ele>197.6126168</ele>
        <time>2019-01-10T15:50:42Z</time>
      </trkpt>
      <trkpt lat="44.3797" lon="1.44678">
        <ele>197.1128652</ele>
        <time>2019-01-10T15:50:48Z</time>
      </trkpt>
      <trkpt lat="44.37963" lon="1.44672">
        <ele>196.21313</ele>
        <time>2019-01-10T15:50:56Z</time>
      </trkpt>
      <trkpt lat="44.37956" lon="1.44665">
        <ele>195.513408</ele>
        <time>2019-01-10T15:51:08Z</time>
      </trkpt>
      <trkpt lat="44.37948" lon="1.4466">
        <ele>198.213582</ele>
        <time>2019-01-10T15:51:24Z</time>
      </trkpt>
      <trkpt lat="44.37939" lon="1.44661">
        <ele>199.213554</ele>
        <time>2019-01-10T15:51:33Z</time>
      </trkpt>
      <trkpt lat="44.37932" lon="1.44664">
        <ele>197.0134468</ele>
        <time>2019-01-10T15:53:00Z</time>
      </trkpt>
      <trkpt lat="44.37932" lon="1.44664">
        <ele>197.0134468</ele>
        <time>2019-01-10T15:53:00Z</time>
      </trkpt>
    </trkseg>
  </trk>
</gpx>